M I D A S
Marine Information and Data Acquisition System
Tripno 2316 of the Zeeleeuw from 2012-05-21 08:23:06 to 2012-05-21 13:44:45
Back to CruiseResearch ActivitiesStationsMapUnderway DataData graphs

EquipmentUnitsComment
TimeDGPSUTC
LatitudeDGPSDM.mWGS84
LongitudeDGPSDM.mWGS84
TemperatureSBE03/SBE38deg celciusITS90
ConductivitySBE21S/mITS90
SalinitySBE21 Practical Salinity Units
ChlorophylAChelsea fluorimeterg/lCalibrated in Aceton
Missing or incorrect values are displayed as -999
Sea surface data collected by the RV Zeeleeuw from 2012-05-21 06:07:44 to 2012-05-21 13:58:18
                                                                                    Next 1000 lines
Time Latitude Longitude Temperature Conductivity Salinity ChlorophylA
2012-05-21 06:07:54 51°13.633 2°56.019 18.3398 0.120645 0.575308 -2.458615
2012-05-21 06:07:58 51°13.633 2°56.019 18.3404 0.120747 0.575818 -2.458615
2012-05-21 06:08:03 51°13.633 2°56.019 18.3409 0.120645 0.575317 -2.458615
2012-05-21 06:08:09 51°13.633 2°56.018 18.3422 0.120645 0.575317 -2.458615
2012-05-21 06:08:14 51°13.633 2°56.018 18.3406 0.120645 0.575317 -2.458615
2012-05-21 06:08:18 51°13.634 2°56.018 18.339 0.120645 0.575317 -2.458615
2012-05-21 06:08:23 51°13.634 2°56.018 18.3394 0.120645 0.575317 -2.458615
2012-05-21 06:08:29 51°13.634 2°56.018 18.3398 0.120645 0.575317 -2.458615
2012-05-21 06:08:34 51°13.634 2°56.018 18.3404 0.120645 0.575325 -2.458615
2012-05-21 06:08:39 51°13.634 2°56.018 18.3407 0.120645 0.575325 -2.458615
2012-05-21 06:08:44 51°13.635 2°56.018 18.3425 0.120645 0.575325 -2.458615
2012-05-21 06:08:48 51°13.636 2°56.018 18.3412 0.120645 0.575325 -2.458615
2012-05-21 06:08:54 51°13.637 2°56.018 18.3431 0.120645 0.575325 -2.458615
2012-05-21 06:08:59 51°13.637 2°56.018 18.3434 0.120542 0.574823 -2.458615
2012-05-21 06:09:03 51°13.636 2°56.017 18.3427 0.120645 0.575333 -2.458615
2012-05-21 06:09:08 51°13.636 2°56.017 18.3425 0.120645 0.575333 -2.458615
2012-05-21 06:09:13 51°13.635 2°56.017 18.3417 0.120747 0.575852 -2.458615
2012-05-21 06:09:18 51°13.635 2°56.016 18.3416 0.120747 0.575844 -2.458615
2012-05-21 06:09:23 51°13.635 2°56.017 18.3413 0.120747 0.575852 -2.458615
2012-05-21 06:09:29 51°13.636 2°56.017 18.3419 0.120645 0.575333 -2.458615
2012-05-21 06:09:33 51°13.637 2°56.017 18.3406 0.120645 0.575342 -2.458615
2012-05-21 06:09:39 51°13.638 2°56.017 18.3414 0.120645 0.575342 -2.458615
2012-05-21 06:09:44 51°13.638 2°56.018 18.3397 0.120645 0.575342 -2.458615
2012-05-21 06:09:49 51°13.638 2°56.017 18.3405 0.120645 0.575342 -2.458615
2012-05-21 06:09:53 51°13.637 2°56.017 18.3402 0.120645 0.575342 -2.458615
2012-05-21 06:09:58 51°13.636 2°56.016 18.3425 0.120645 0.57535 -2.458615
2012-05-21 06:10:04 51°13.635 2°56.016 18.3441 0.120645 0.57535 -2.458615
2012-05-21 06:10:09 51°13.635 2°56.016 18.3457 0.120645 0.57535 -2.458615
2012-05-21 06:10:14 51°13.636 2°56.016 18.3461 0.120645 0.57535 -2.458615
2012-05-21 06:10:18 51°13.636 2°56.017 18.3463 0.120542 0.574848 -2.458615
2012-05-21 06:10:23 51°13.637 2°56.017 18.3441 0.120645 0.57535 -2.458615
2012-05-21 06:10:28 51°13.637 2°56.017 18.3397 0.120645 0.575359 -2.458615
2012-05-21 06:10:33 51°13.638 2°56.018 18.3424 0.120645 0.575359 -2.458615
2012-05-21 06:10:39 51°13.638 2°56.018 18.3367 0.120645 0.575359 -2.458615
2012-05-21 06:10:44 51°13.639 2°56.018 18.3389 0.120645 0.575359 -2.458615
2012-05-21 06:10:49 51°13.64 2°56.019 18.3394 0.120645 0.575367 -2.458615
2012-05-21 06:10:54 51°13.64 2°56.019 18.3405 0.120747 0.575877 -2.458615
2012-05-21 06:10:58 51°13.64 2°56.019 18.3441 0.120645 0.575367 -2.458615
2012-05-21 06:11:03 51°13.641 2°56.019 18.3438 0.120645 0.575367 -2.458615
2012-05-21 06:11:08 51°13.641 2°56.02 18.3437 0.120645 0.575367 -2.458615
2012-05-21 06:11:13 51°13.64 2°56.02 18.3381 0.120645 0.575375 -2.458615
2012-05-21 06:11:19 51°13.641 2°56.02 18.3355 0.120645 0.575375 -2.458615
2012-05-21 06:11:24 51°13.64 2°56.02 18.3335 0.120645 0.575375 -2.458615
2012-05-21 06:11:29 51°13.64 2°56.02 18.3367 0.120645 0.575375 -2.458615
2012-05-21 06:11:33 51°13.64 2°56.02 18.3465 0.120645 0.575375 -2.458615
2012-05-21 06:11:39 51°13.64 2°56.02 18.3467 0.120645 0.575375 -2.458615
2012-05-21 06:11:43 51°13.64 2°56.02 18.3463 0.120645 0.575384 -2.458615
2012-05-21 06:11:48 51°13.64 2°56.02 18.3453 0.120542 0.574865 -2.458615
2012-05-21 06:11:54 51°13.64 2°56.021 18.3459 0.120542 0.574874 -2.458615
2012-05-21 06:11:59 51°13.64 2°56.021 18.3437 0.120542 0.574865 -2.458615
2012-05-21 06:12:03 51°13.64 2°56.02 18.3454 0.120747 0.575894 -2.458615
2012-05-21 06:12:08 51°13.64 2°56.021 18.3452 0.120747 0.575894 -2.458615
2012-05-21 06:12:13 51°13.64 2°56.021 18.3469 0.120747 0.575894 -2.458615
2012-05-21 06:12:19 51°13.64 2°56.021 18.3442 0.120645 0.575384 -2.458615
2012-05-21 06:12:24 51°13.641 2°56.021 18.3443 0.120645 0.575392 -2.458615
2012-05-21 06:12:29 51°13.641 2°56.021 18.3454 0.120747 0.575902 -2.458615
2012-05-21 06:12:33 51°13.64 2°56.02 18.3448 0.120645 0.575392 -2.458615
2012-05-21 06:12:39 51°13.64 2°56.021 18.3465 0.120645 0.575392 -2.458615
2012-05-21 06:12:44 51°13.64 2°56.02 18.3457 0.120645 0.575392 -2.458615
2012-05-21 06:12:49 51°13.64 2°56.02 18.3472 0.120542 0.57489 -2.458615
2012-05-21 06:12:53 51°13.639 2°56.02 18.3466 0.120645 0.5754 -2.458615
2012-05-21 06:12:59 51°13.639 2°56.02 18.3456 0.120747 0.575919 -2.458615
2012-05-21 06:13:04 51°13.639 2°56.02 18.3437 0.120645 0.5754 -2.458615
2012-05-21 06:13:09 51°13.639 2°56.02 18.3453 0.120645 0.5754 -2.458615
2012-05-21 06:13:13 51°13.639 2°56.02 18.3466 0.120645 0.5754 -2.458615
2012-05-21 06:13:18 51°13.639 2°56.02 18.3469 0.120645 0.575409 -2.458615
2012-05-21 06:13:24 51°13.639 2°56.02 18.3474 0.120645 0.575409 -2.458615
2012-05-21 06:13:29 51°13.639 2°56.02 18.3485 0.120645 0.575409 -2.458615
2012-05-21 06:13:34 51°13.639 2°56.02 18.3459 0.120645 0.575409 -2.458615
2012-05-21 06:13:39 51°13.639 2°56.02 18.3447 0.120645 0.575417 -2.458615
2012-05-21 06:13:44 51°13.639 2°56.02 18.3463 0.120645 0.575417 -2.458615
2012-05-21 06:13:49 51°13.639 2°56.02 18.3456 0.120645 0.575417 -2.458615
2012-05-21 06:13:53 51°13.639 2°56.02 18.3489 0.120542 0.574907 -2.458615
2012-05-21 06:13:59 51°13.639 2°56.02 18.3484 0.120645 0.575417 -2.458615
2012-05-21 06:14:04 51°13.638 2°56.02 18.3486 0.120645 0.575417 -2.458615
2012-05-21 06:14:09 51°13.638 2°56.02 18.3502 0.120747 0.575935 -2.458615
2012-05-21 06:14:13 51°13.638 2°56.02 18.3499 0.120747 0.575935 -2.458615
2012-05-21 06:14:18 51°13.638 2°56.02 18.347 0.120645 0.575425 -2.458615
2012-05-21 06:14:23 51°13.639 2°56.02 18.3473 0.120645 0.575425 -2.458615
2012-05-21 06:14:28 51°13.639 2°56.02 18.3465 0.120747 0.575944 -2.458615
2012-05-21 06:14:33 51°13.639 2°56.02 18.3477 0.120645 0.575425 -2.458615
2012-05-21 06:14:38 51°13.639 2°56.02 18.3463 0.120645 0.575425 -2.458615
2012-05-21 06:14:43 51°13.639 2°56.02 18.3474 0.120645 0.575434 -2.458615
2012-05-21 06:14:49 51°13.639 2°56.02 18.3471 0.120542 0.574924 -2.458615
2012-05-21 06:14:54 51°13.639 2°56.02 18.348 0.120645 0.575434 -2.458615
2012-05-21 06:14:58 51°13.639 2°56.02 18.3488 0.120645 0.575434 -2.458615
2012-05-21 06:15:03 51°13.639 2°56.02 18.3491 0.120747 0.575952 -2.458615
2012-05-21 06:15:08 51°13.639 2°56.02 18.3489 0.120645 0.575442 -2.458615
2012-05-21 06:15:14 51°13.639 2°56.02 18.349 0.120645 0.575442 -2.458615
2012-05-21 06:15:19 51°13.639 2°56.02 18.3484 0.120645 0.575442 -2.458615
2012-05-21 06:15:24 51°13.639 2°56.02 18.3484 0.120747 0.575952 -2.458615
2012-05-21 06:15:29 51°13.639 2°56.02 18.3469 0.120645 0.575442 -2.458615
2012-05-21 06:15:34 51°13.638 2°56.02 18.3529 0.120645 0.575442 -2.458615
2012-05-21 06:15:39 51°13.638 2°56.02 18.3511 0.120645 0.575442 -2.458615
2012-05-21 06:15:44 51°13.637 2°56.02 18.3511 0.120747 0.575961 -2.458615
2012-05-21 06:15:49 51°13.638 2°56.02 18.3523 0.120645 0.57545 -2.458615
2012-05-21 06:15:54 51°13.638 2°56.02 18.3539 0.120645 0.57545 -2.458615
2012-05-21 06:15:59 51°13.638 2°56.02 18.3542 0.120645 0.575459 -2.458615
2012-05-21 06:16:04 51°13.638 2°56.02 18.3524 0.120645 0.575459 -2.458615
2012-05-21 06:16:09 51°13.638 2°56.02 18.3514 0.120645 0.575459 -2.458615
2012-05-21 06:16:14 51°13.638 2°56.019 18.3512 0.120747 0.575969 -2.458615
2012-05-21 06:16:19 51°13.638 2°56.019 18.3521 0.120747 0.575969 -2.458615
2012-05-21 06:16:23 51°13.638 2°56.019 18.3528 0.120645 0.575459 -2.458615
2012-05-21 06:16:28 51°13.637 2°56.019 18.353 0.120645 0.575459 -2.458615
2012-05-21 06:16:34 51°13.637 2°56.019 18.3529 0.120645 0.575467 -2.458615
2012-05-21 06:16:39 51°13.638 2°56.019 18.354 0.120645 0.575467 -2.458615
2012-05-21 06:16:44 51°13.638 2°56.019 18.3517 0.120645 0.575467 -2.458615
2012-05-21 06:16:49 51°13.638 2°56.019 18.3512 0.120542 0.574957 -2.458615
2012-05-21 06:16:54 51°13.638 2°56.019 18.351 0.120645 0.575467 -2.458615
2012-05-21 06:16:58 51°13.638 2°56.02 18.351 0.120645 0.575467 -2.458615
2012-05-21 06:17:03 51°13.638 2°56.019 18.3518 0.120747 0.575977 -2.458615
2012-05-21 06:17:08 51°13.638 2°56.019 18.3528 0.120747 0.575977 -2.458615
2012-05-21 06:17:14 51°13.638 2°56.019 18.3523 0.120645 0.575475 -2.458615
2012-05-21 06:17:19 51°13.637 2°56.019 18.3529 0.120645 0.575484 -2.458615
2012-05-21 06:17:24 51°13.637 2°56.019 18.3529 0.120645 0.575475 -2.458615
2012-05-21 06:17:29 51°13.637 2°56.019 18.3532 0.120542 0.574974 -2.458615
2012-05-21 06:17:34 51°13.637 2°56.019 18.3536 0.120645 0.575475 -2.458615
2012-05-21 06:17:39 51°13.638 2°56.019 18.3517 0.120645 0.575475 -2.458615
2012-05-21 06:17:44 51°13.638 2°56.019 18.3506 0.120645 0.575484 -2.458615
2012-05-21 06:17:48 51°13.638 2°56.019 18.3507 0.120645 0.575492 -2.458615
2012-05-21 06:17:54 51°13.638 2°56.019 18.3514 0.120645 0.575484 -2.458615
2012-05-21 06:17:59 51°13.638 2°56.019 18.3523 0.120645 0.575492 -2.458615
2012-05-21 06:18:03 51°13.638 2°56.019 18.3527 0.120645 0.575492 -2.458615
2012-05-21 06:18:08 51°13.638 2°56.019 18.3539 0.120542 0.574982 -2.458615
2012-05-21 06:18:13 51°13.638 2°56.019 18.3537 0.120542 0.574982 -2.458615
2012-05-21 06:18:19 51°13.637 2°56.019 18.3539 0.120645 0.575501 -2.458615
2012-05-21 06:18:24 51°13.637 2°56.019 18.3551 0.120645 0.575492 -2.458615
2012-05-21 06:18:29 51°13.638 2°56.019 18.3549 0.120645 0.575501 -2.458615
2012-05-21 06:18:34 51°13.638 2°56.019 18.3555 0.120645 0.575501 -2.458615
2012-05-21 06:18:38 51°13.638 2°56.02 18.3555 0.120645 0.575501 -2.458615
2012-05-21 06:18:44 51°13.638 2°56.019 18.3555 0.120645 0.575509 -2.458615
2012-05-21 06:18:49 51°13.637 2°56.019 18.3568 0.120645 0.575509 -2.458615
2012-05-21 06:18:54 51°13.637 2°56.019 18.354 0.120645 0.575501 -2.458615
2012-05-21 06:18:58 51°13.637 2°56.019 18.3541 0.120645 0.575509 -2.458615
2012-05-21 06:19:03 51°13.637 2°56.019 18.3552 0.120645 0.575509 -2.458615
2012-05-21 06:19:09 51°13.638 2°56.019 18.3555 0.120645 0.575509 -2.458615
2012-05-21 06:19:14 51°13.638 2°56.02 18.3579 0.120645 0.575509 -2.458615
2012-05-21 06:19:19 51°13.638 2°56.02 18.3578 0.120645 0.575517 -2.458615
2012-05-21 06:19:24 51°13.637 2°56.019 18.3593 0.120645 0.575509 -2.458615
2012-05-21 06:19:29 51°13.637 2°56.019 18.3597 0.120542 0.575007 -2.458615
2012-05-21 06:19:33 51°13.637 2°56.019 18.3617 0.120645 0.575517 -2.458615
2012-05-21 06:19:39 51°13.637 2°56.019 18.3618 0.120645 0.575517 -2.458615
2012-05-21 06:19:43 51°13.637 2°56.019 18.3627 0.120645 0.575526 -2.458615
2012-05-21 06:19:48 51°13.637 2°56.019 18.3649 0.120747 0.576036 -2.458615
2012-05-21 06:19:53 51°13.637 2°56.019 18.3661 0.120645 0.575526 -2.458615
2012-05-21 06:19:58 51°13.637 2°56.019 18.3662 0.120645 0.575526 -2.458615
2012-05-21 06:20:03 51°13.637 2°56.019 18.3661 0.120542 0.575024 -2.458615
2012-05-21 06:20:09 51°13.637 2°56.019 18.3673 0.120542 0.575024 -2.458615
2012-05-21 06:20:14 51°13.637 2°56.019 18.3662 0.120645 0.575534 -2.458615
2012-05-21 06:20:19 51°13.637 2°56.019 18.3677 0.120645 0.575534 -2.458615
2012-05-21 06:20:23 51°13.637 2°56.019 18.3677 0.120645 0.575534 -2.458615
2012-05-21 06:20:28 51°13.636 2°56.019 18.3682 0.120645 0.575534 -2.458615
2012-05-21 06:20:33 51°13.637 2°56.019 18.368 0.120645 0.575542 -2.458615
2012-05-21 06:20:39 51°13.637 2°56.019 18.3678 0.120645 0.575542 -2.458615
2012-05-21 06:20:44 51°13.637 2°56.019 18.3628 0.120645 0.575542 -2.458615
2012-05-21 06:20:49 51°13.636 2°56.019 18.363 0.120645 0.575542 -2.458615
2012-05-21 06:20:54 51°13.636 2°56.019 18.3642 0.120542 0.575032 -2.458615
2012-05-21 06:20:59 51°13.636 2°56.019 18.3638 0.120542 0.575041 -2.458615
2012-05-21 06:21:03 51°13.636 2°56.019 18.3662 0.120645 0.575551 -2.458615
2012-05-21 06:21:08 51°13.636 2°56.019 18.366 0.120645 0.575551 -2.458615
2012-05-21 06:21:13 51°13.636 2°56.019 18.3669 0.120645 0.575551 -2.458615
2012-05-21 06:21:18 51°13.636 2°56.019 18.3671 0.120747 0.576061 -2.458615
2012-05-21 06:21:24 51°13.636 2°56.019 18.3682 0.120645 0.575551 -2.458615
2012-05-21 06:21:28 51°13.636 2°56.019 18.3675 0.120645 0.575559 -2.458615
2012-05-21 06:21:33 51°13.636 2°56.019 18.3687 0.120645 0.575567 -2.458615
2012-05-21 06:21:38 51°13.636 2°56.019 18.3685 0.120645 0.575567 -2.458615
2012-05-21 06:21:44 51°13.636 2°56.019 18.3689 0.120645 0.575567 -2.458615
2012-05-21 06:21:49 51°13.636 2°56.019 18.3694 0.120645 0.575567 -2.458615
2012-05-21 06:21:54 51°13.636 2°56.019 18.3687 0.120645 0.575567 -2.458615
2012-05-21 06:21:59 51°13.636 2°56.019 18.3698 0.120645 0.575567 -2.458615
2012-05-21 06:22:04 51°13.636 2°56.019 18.3691 0.120645 0.575567 -2.458615
2012-05-21 06:22:09 51°13.636 2°56.019 18.3682 0.120645 0.575567 -2.458615
2012-05-21 06:22:14 51°13.636 2°56.019 18.368 0.120645 0.575576 -2.458615
2012-05-21 06:22:19 51°13.636 2°56.019 18.3678 0.120645 0.575576 -2.458615
2012-05-21 06:22:24 51°13.636 2°56.019 18.3685 0.120645 0.575576 -2.458615
2012-05-21 06:22:29 51°13.636 2°56.019 18.3677 0.120645 0.575576 -2.458615
2012-05-21 06:22:33 51°13.636 2°56.019 18.3692 0.120645 0.575584 -2.458615
2012-05-21 06:22:38 51°13.636 2°56.019 18.3691 0.120645 0.575584 -2.458615
2012-05-21 06:22:43 51°13.636 2°56.018 18.3694 0.120645 0.575584 -2.458615
2012-05-21 06:22:48 51°13.636 2°56.018 18.3685 0.120645 0.575584 -2.458615
2012-05-21 06:22:53 51°13.636 2°56.019 18.3692 0.120645 0.575584 -2.458615
2012-05-21 06:22:59 51°13.636 2°56.018 18.3673 0.120645 0.575593 -2.458615
2012-05-21 06:23:04 51°13.636 2°56.018 18.3674 0.120542 0.575082 -2.458615
2012-05-21 06:23:09 51°13.635 2°56.018 18.3669 0.120542 0.575082 -2.458615
2012-05-21 06:23:13 51°13.635 2°56.018 18.3671 0.120645 0.575593 -2.458615
2012-05-21 06:23:18 51°13.635 2°56.018 18.3668 0.120645 0.575593 -2.458615
2012-05-21 06:23:23 51°13.635 2°56.018 18.3665 0.120542 0.575091 -2.458615
2012-05-21 06:23:28 51°13.636 2°56.018 18.3673 0.120542 0.575091 -2.458615
2012-05-21 06:23:33 51°13.635 2°56.018 18.3677 0.120542 0.575091 -2.458615
2012-05-21 06:23:38 51°13.635 2°56.018 18.3685 0.120542 0.575091 -2.458615
2012-05-21 06:23:44 51°13.635 2°56.018 18.3678 0.120645 0.575601 -2.458615
2012-05-21 06:23:49 51°13.635 2°56.018 18.367 0.120645 0.575609 -2.458615
2012-05-21 06:23:54 51°13.635 2°56.018 18.3672 0.120542 0.575091 -2.458615
2012-05-21 06:23:59 51°13.635 2°56.018 18.3655 0.120645 0.575609 -2.458615
2012-05-21 06:24:04 51°13.635 2°56.018 18.3676 0.120645 0.575609 -2.458615
2012-05-21 06:24:09 51°13.635 2°56.018 18.3683 0.120645 0.575609 -2.458615
2012-05-21 06:24:14 51°13.635 2°56.018 18.3696 0.120645 0.575618 -2.458615
2012-05-21 06:24:19 51°13.635 2°56.018 18.369 0.120645 0.575618 -2.458615
2012-05-21 06:24:23 51°13.635 2°56.018 18.3698 0.120645 0.575618 -2.458615
2012-05-21 06:24:29 51°13.635 2°56.018 18.37 0.120542 0.575107 -2.458615
2012-05-21 06:24:33 51°13.635 2°56.018 18.3695 0.120645 0.575626 -2.458615
2012-05-21 06:24:39 51°13.635 2°56.018 18.37 0.120645 0.575626 -2.458615
2012-05-21 06:24:44 51°13.635 2°56.018 18.3702 0.120645 0.575626 -2.458615
2012-05-21 06:24:49 51°13.635 2°56.018 18.3716 0.120645 0.575626 -2.458615
2012-05-21 06:24:54 51°13.635 2°56.018 18.3725 0.120542 0.575116 -2.458615
2012-05-21 06:24:59 51°13.635 2°56.018 18.3716 0.120645 0.575634 -2.458615
2012-05-21 06:25:03 51°13.635 2°56.018 18.3716 0.120542 0.575124 -2.458615
2012-05-21 06:25:09 51°13.635 2°56.018 18.3724 0.120542 0.575124 -2.458615
2012-05-21 06:25:14 51°13.635 2°56.018 18.3709 0.120542 0.575124 -2.458615
2012-05-21 06:25:18 51°13.635 2°56.018 18.3681 0.120645 0.575634 -2.458615
2012-05-21 06:25:23 51°13.635 2°56.018 18.3682 0.120645 0.575634 -2.458615
2012-05-21 06:25:29 51°13.635 2°56.018 18.3673 0.120645 0.575643 -2.458615
2012-05-21 06:25:34 51°13.635 2°56.018 18.3674 0.120645 0.575643 -2.458615
2012-05-21 06:25:38 51°13.635 2°56.018 18.3682 0.120645 0.575643 -2.458615
2012-05-21 06:25:44 51°13.635 2°56.018 18.3705 0.120645 0.575643 -2.458615
2012-05-21 06:25:49 51°13.635 2°56.018 18.372 0.120645 0.575643 -2.458615
2012-05-21 06:25:53 51°13.635 2°56.018 18.372 0.120645 0.575643 -2.458615
2012-05-21 06:25:58 51°13.635 2°56.018 18.3726 0.120542 0.575141 -2.458615
2012-05-21 06:26:04 51°13.635 2°56.018 18.3721 0.120645 0.575643 -2.458615
2012-05-21 06:26:09 51°13.635 2°56.018 18.3719 0.120645 0.575643 -2.458615
2012-05-21 06:26:13 51°13.635 2°56.018 18.3739 0.120542 0.575141 -2.458615
2012-05-21 06:26:19 51°13.635 2°56.018 18.3731 0.120645 0.575651 -2.458615
2012-05-21 06:26:24 51°13.635 2°56.018 18.3734 0.120645 0.575659 -2.458615
2012-05-21 06:26:29 51°13.636 2°56.018 18.3748 0.120645 0.575659 -2.458615
2012-05-21 06:26:34 51°13.636 2°56.018 18.373 0.120542 0.575149 -2.458615
2012-05-21 06:26:39 51°13.636 2°56.018 18.3745 0.120542 0.575149 -2.458615
2012-05-21 06:26:44 51°13.636 2°56.018 18.3753 0.120542 0.575149 -2.458615
2012-05-21 06:26:49 51°13.636 2°56.018 18.375 0.120645 0.575668 -2.458615
2012-05-21 06:26:53 51°13.636 2°56.019 18.375 0.120645 0.575668 -2.458615
2012-05-21 06:26:58 51°13.636 2°56.018 18.3737 0.120645 0.575668 -2.458615
2012-05-21 06:27:03 51°13.636 2°56.018 18.3733 0.120645 0.575668 -2.458615
2012-05-21 06:27:08 51°13.636 2°56.019 18.373 0.120645 0.575668 -2.458615
2012-05-21 06:27:13 51°13.636 2°56.018 18.3729 0.120542 0.575157 -2.458615
2012-05-21 06:27:18 51°13.636 2°56.018 18.3665 0.120542 0.575157 -2.458615
2012-05-21 06:27:23 51°13.636 2°56.018 18.3669 0.120542 0.575166 -2.458615
2012-05-21 06:27:28 51°13.636 2°56.018 18.3654 0.120542 0.575166 -2.458615
2012-05-21 06:27:33 51°13.636 2°56.018 18.3629 0.120645 0.575668 -2.458615
2012-05-21 06:27:38 51°13.636 2°56.018 18.365 0.120645 0.575668 -2.458615
2012-05-21 06:27:43 51°13.636 2°56.018 18.3665 0.120645 0.575684 -2.458615
2012-05-21 06:27:49 51°13.636 2°56.019 18.368 0.120645 0.575676 -2.458615
2012-05-21 06:27:54 51°13.636 2°56.018 18.3698 0.120645 0.575684 -2.458615
2012-05-21 06:27:59 51°13.635 2°56.018 18.3711 0.120645 0.575684 -2.458615
2012-05-21 06:28:04 51°13.636 2°56.018 18.3704 0.120645 0.575684 -2.458615
2012-05-21 06:28:09 51°13.636 2°56.018 18.3699 0.120645 0.575684 -2.458615
2012-05-21 06:28:14 51°13.636 2°56.018 18.3698 0.120542 0.575174 -2.458615
2012-05-21 06:28:19 51°13.635 2°56.018 18.3694 0.120645 0.575693 -2.458615
2012-05-21 06:28:24 51°13.635 2°56.018 18.3683 0.120542 0.575183 -2.458615
2012-05-21 06:28:29 51°13.635 2°56.018 18.3699 0.120645 0.575693 -2.458615
2012-05-21 06:28:34 51°13.635 2°56.018 18.3723 0.120645 0.575693 -2.458615
2012-05-21 06:28:38 51°13.635 2°56.018 18.3719 0.120645 0.575693 -2.458615
2012-05-21 06:28:44 51°13.635 2°56.018 18.3721 0.120645 0.575693 -2.458615
2012-05-21 06:28:49 51°13.635 2°56.018 18.3735 0.120645 0.575701 -2.458615
2012-05-21 06:28:53 51°13.635 2°56.018 18.3737 0.120645 0.575701 -2.458615
2012-05-21 06:28:58 51°13.635 2°56.018 18.3735 0.120645 0.575701 -2.458615
2012-05-21 06:29:04 51°13.635 2°56.017 18.3743 0.120645 0.575701 -2.458615
2012-05-21 06:29:08 51°13.635 2°56.018 18.3747 0.120645 0.575701 -2.458615
2012-05-21 06:29:13 51°13.635 2°56.018 18.3727 0.120747 0.576212 -2.458615
2012-05-21 06:29:18 51°13.635 2°56.018 18.3708 0.120645 0.57571 -2.458615
2012-05-21 06:29:23 51°13.635 2°56.018 18.3726 0.120645 0.575701 -2.458615
2012-05-21 06:29:28 51°13.635 2°56.018 18.3735 0.120542 0.575199 -2.458615
2012-05-21 06:29:33 51°13.635 2°56.018 18.3741 0.120645 0.57571 -2.458615
2012-05-21 06:29:38 51°13.635 2°56.018 18.3753 0.120645 0.57571 -2.458615
2012-05-21 06:29:43 51°13.635 2°56.018 18.375 0.120645 0.57571 -2.458615
2012-05-21 06:29:48 51°13.635 2°56.018 18.3768 0.120645 0.57571 -2.458615
2012-05-21 06:29:53 51°13.635 2°56.018 18.3773 0.120645 0.575718 -2.458615
2012-05-21 06:29:59 51°13.635 2°56.018 18.377 0.120645 0.575718 -2.458615
2012-05-21 06:30:04 51°13.635 2°56.018 18.3783 0.120645 0.575718 -2.458615
2012-05-21 06:30:09 51°13.636 2°56.018 18.3776 0.120645 0.575718 -2.458615
2012-05-21 06:30:14 51°13.636 2°56.018 18.3773 0.120645 0.575718 -2.458615
2012-05-21 06:30:19 51°13.636 2°56.018 18.3768 0.120645 0.575726 -2.458615
2012-05-21 06:30:24 51°13.636 2°56.018 18.3786 0.120645 0.575726 -2.458615
2012-05-21 06:30:29 51°13.636 2°56.018 18.3803 0.120645 0.575726 -2.458615
2012-05-21 06:30:34 51°13.636 2°56.018 18.3788 0.120645 0.575726 -2.458615
2012-05-21 06:30:39 51°13.636 2°56.018 18.3806 0.120645 0.575726 -2.458615
2012-05-21 06:30:44 51°13.636 2°56.018 18.3809 0.120542 0.575224 -2.458615
2012-05-21 06:30:49 51°13.636 2°56.018 18.3824 0.120542 0.575224 -2.458615
2012-05-21 06:30:54 51°13.636 2°56.018 18.382 0.120542 0.575216 -2.458615
2012-05-21 06:30:59 51°13.636 2°56.018 18.3834 0.120645 0.575735 -2.458615
2012-05-21 06:31:04 51°13.636 2°56.018 18.3843 0.120747 0.576245 -2.458615
2012-05-21 06:31:08 51°13.636 2°56.018 18.3849 0.120747 0.576245 -2.458615
2012-05-21 06:31:14 51°13.636 2°56.018 18.3855 0.120645 0.575735 -2.458615
2012-05-21 06:31:19 51°13.636 2°56.018 18.3859 0.120645 0.575743 -2.458615
2012-05-21 06:31:24 51°13.636 2°56.018 18.3868 0.120542 0.575233 -2.458615
2012-05-21 06:31:29 51°13.636 2°56.018 18.386 0.120542 0.575233 -2.458615
2012-05-21 06:31:34 51°13.636 2°56.018 18.3843 0.120645 0.575743 -2.458615
2012-05-21 06:31:38 51°13.636 2°56.018 18.3847 0.120645 0.575743 -2.458615
2012-05-21 06:31:44 51°13.636 2°56.018 18.3838 0.120542 0.575241 -2.458615
2012-05-21 06:31:49 51°13.636 2°56.018 18.3839 0.120542 0.575241 -2.458615
2012-05-21 06:31:54 51°13.636 2°56.018 18.3833 0.120645 0.575751 -2.458615
2012-05-21 06:31:59 51°13.636 2°56.018 18.382 0.120542 0.575241 -2.458615
2012-05-21 06:32:04 51°13.636 2°56.018 18.3806 0.120645 0.57576 -2.458615
2012-05-21 06:32:09 51°13.636 2°56.018 18.3824 0.120645 0.57576 -2.458615
2012-05-21 06:32:14 51°13.636 2°56.018 18.3821 0.120542 0.575249 -2.458615
2012-05-21 06:32:19 51°13.636 2°56.018 18.3824 0.120542 0.575258 -2.458615
2012-05-21 06:32:24 51°13.636 2°56.018 18.3825 0.120645 0.57576 -2.458615
2012-05-21 06:32:29 51°13.636 2°56.018 18.3834 0.120645 0.575768 -2.458615
2012-05-21 06:32:34 51°13.636 2°56.018 18.3852 0.120645 0.575768 -2.458615
2012-05-21 06:32:39 51°13.636 2°56.018 18.3855 0.120645 0.575768 -2.458615
2012-05-21 06:32:44 51°13.636 2°56.018 18.3857 0.120645 0.575768 -2.458615
2012-05-21 06:32:49 51°13.636 2°56.018 18.386 0.120645 0.575777 -2.458615
2012-05-21 06:32:54 51°13.636 2°56.018 18.386 0.120542 0.575258 -2.458615
2012-05-21 06:32:59 51°13.636 2°56.018 18.3853 0.120645 0.575777 -2.458615
2012-05-21 06:33:04 51°13.636 2°56.018 18.3852 0.120645 0.575777 -2.458615
2012-05-21 06:33:09 51°13.636 2°56.018 18.3857 0.120645 0.575777 -2.458615
2012-05-21 06:33:13 51°13.636 2°56.018 18.3846 0.120542 0.575266 -2.458615
2012-05-21 06:33:18 51°13.636 2°56.018 18.3839 0.120542 0.575274 -2.458615
2012-05-21 06:33:24 51°13.636 2°56.018 18.385 0.120645 0.575785 -2.458615
2012-05-21 06:33:29 51°13.636 2°56.018 18.3861 0.120645 0.575785 -2.458615
2012-05-21 06:33:34 51°13.636 2°56.018 18.3867 0.120645 0.575793 -2.458615
2012-05-21 06:33:39 51°13.636 2°56.018 18.3884 0.120645 0.575793 -2.458615
2012-05-21 06:33:44 51°13.636 2°56.018 18.3886 0.120645 0.575793 -2.458615
2012-05-21 06:33:49 51°13.636 2°56.018 18.3889 0.120542 0.575283 -2.458615
2012-05-21 06:33:53 51°13.636 2°56.017 18.39 0.120645 0.575793 -2.458615
2012-05-21 06:33:58 51°13.636 2°56.017 18.3905 0.120645 0.575793 -2.458615
2012-05-21 06:34:03 51°13.636 2°56.017 18.3875 0.120645 0.575802 -2.458615
2012-05-21 06:34:08 51°13.636 2°56.017 18.3844 0.120645 0.575802 -2.458615
2012-05-21 06:34:13 51°13.636 2°56.017 18.3852 0.120645 0.575802 -2.458615
2012-05-21 06:34:18 51°13.636 2°56.017 18.3851 0.120542 0.5753 -2.458615
2012-05-21 06:34:23 51°13.636 2°56.017 18.3863 0.120542 0.575291 -2.458615
2012-05-21 06:34:29 51°13.636 2°56.017 18.3869 0.120645 0.57581 -2.458615
2012-05-21 06:34:34 51°13.636 2°56.017 18.3886 0.120645 0.57581 -2.458615
2012-05-21 06:34:39 51°13.635 2°56.017 18.3891 0.120645 0.57581 -2.458615
2012-05-21 06:34:44 51°13.635 2°56.017 18.3895 0.120645 0.57581 -2.458615
2012-05-21 06:34:49 51°13.634 2°56.017 18.3917 0.120542 0.575308 -2.458615
2012-05-21 06:34:54 51°13.634 2°56.017 18.3926 0.120645 0.575818 -2.458615
2012-05-21 06:34:59 51°13.634 2°56.017 18.3918 0.120542 0.575308 -2.458615
2012-05-21 06:35:03 51°13.634 2°56.017 18.3918 0.120542 0.575316 -2.458615
2012-05-21 06:35:09 51°13.635 2°56.017 18.3894 0.120542 0.575316 -2.458615
2012-05-21 06:35:14 51°13.635 2°56.017 18.3902 0.120645 0.575827 -2.458615
2012-05-21 06:35:18 51°13.635 2°56.017 18.3903 0.120645 0.575827 -2.458615
2012-05-21 06:35:24 51°13.635 2°56.017 18.3912 0.120645 0.575827 -2.458615
2012-05-21 06:35:28 51°13.635 2°56.017 18.392 0.120645 0.575835 -2.458615
2012-05-21 06:35:34 51°13.635 2°56.017 18.392 0.120645 0.575835 -2.458615
2012-05-21 06:35:39 51°13.636 2°56.017 18.3934 0.120645 0.575835 -2.458615
2012-05-21 06:35:44 51°13.636 2°56.017 18.3927 0.120542 0.575325 -2.458615
2012-05-21 06:35:49 51°13.636 2°56.017 18.3933 0.120542 0.575333 -2.458615
2012-05-21 06:35:54 51°13.636 2°56.017 18.3917 0.120542 0.575325 -2.458615
2012-05-21 06:35:59 51°13.636 2°56.017 18.3932 0.120542 0.575333 -2.458615
2012-05-21 06:36:04 51°13.636 2°56.017 18.3923 0.120645 0.575852 -2.458615
2012-05-21 06:36:09 51°13.636 2°56.017 18.3941 0.120645 0.575852 -2.458615
2012-05-21 06:36:13 51°13.636 2°56.017 18.3932 0.120645 0.575852 -2.458615
2012-05-21 06:36:19 51°13.636 2°56.017 18.3925 0.120645 0.575852 -2.458615
2012-05-21 06:36:24 51°13.636 2°56.017 18.3914 0.120645 0.575852 -2.458615
2012-05-21 06:36:29 51°13.637 2°56.017 18.3936 0.120645 0.57586 -2.458615
2012-05-21 06:36:34 51°13.636 2°56.017 18.3945 0.120542 0.575341 -2.458615
2012-05-21 06:36:39 51°13.636 2°56.017 18.3933 0.120542 0.575341 -2.458615
2012-05-21 06:36:44 51°13.636 2°56.017 18.3946 0.120645 0.575869 -2.458615
2012-05-21 06:36:49 51°13.636 2°56.017 18.3959 0.120645 0.575869 -2.458615
2012-05-21 06:36:54 51°13.636 2°56.017 18.3957 0.120542 0.575358 -2.458615
2012-05-21 06:36:59 51°13.636 2°56.017 18.3956 0.120542 0.575358 -2.458615
2012-05-21 06:37:03 51°13.636 2°56.016 18.3958 0.120645 0.575877 -2.458615
2012-05-21 06:37:08 51°13.636 2°56.016 18.3959 0.120645 0.575877 -2.458615
2012-05-21 06:37:13 51°13.636 2°56.016 18.3969 0.120645 0.575877 -2.458615
2012-05-21 06:37:18 51°13.636 2°56.016 18.3983 0.120645 0.575877 -2.458615
2012-05-21 06:37:24 51°13.636 2°56.016 18.3969 0.120645 0.575885 -2.458615
2012-05-21 06:37:29 51°13.636 2°56.016 18.3957 0.120542 0.575366 -2.458615
2012-05-21 06:37:34 51°13.636 2°56.016 18.3955 0.120645 0.575885 -2.458615
2012-05-21 06:37:39 51°13.636 2°56.016 18.3972 0.120645 0.575885 -2.458615
2012-05-21 06:37:44 51°13.636 2°56.016 18.3981 0.120645 0.575894 -2.458615
2012-05-21 06:37:48 51°13.636 2°56.016 18.3995 0.120542 0.575375 -2.458615
2012-05-21 06:37:54 51°13.636 2°56.016 18.3981 0.120645 0.575894 -2.458615
2012-05-21 06:37:59 51°13.636 2°56.016 18.3993 0.120645 0.575902 -2.458615
2012-05-21 06:38:03 51°13.636 2°56.016 18.4 0.120542 0.575392 -2.458615
2012-05-21 06:38:08 51°13.636 2°56.016 18.4008 0.120542 0.575392 -2.458615
2012-05-21 06:38:14 51°13.636 2°56.017 18.4007 0.120645 0.575902 -2.458615
2012-05-21 06:38:18 51°13.636 2°56.017 18.3997 0.120645 0.57591 -2.458615
2012-05-21 06:38:23 51°13.635 2°56.017 18.3996 0.120542 0.5754 -2.458615
2012-05-21 06:38:28 51°13.635 2°56.017 18.4007 0.120542 0.5754 -2.458615
2012-05-21 06:38:33 51°13.635 2°56.017 18.4005 0.120542 0.5754 -2.458615
2012-05-21 06:38:38 51°13.635 2°56.017 18.4013 0.120542 0.5754 -2.458615
2012-05-21 06:38:44 51°13.635 2°56.017 18.4011 0.120542 0.575408 -2.458615
2012-05-21 06:38:48 51°13.635 2°56.017 18.4008 0.120645 0.575927 -2.458615
2012-05-21 06:38:54 51°13.635 2°56.018 18.4019 0.120645 0.575919 -2.458615
2012-05-21 06:38:58 51°13.635 2°56.018 18.4008 0.120645 0.575927 -2.458615
2012-05-21 06:39:04 51°13.635 2°56.018 18.4004 0.120542 0.575425 -2.458615
2012-05-21 06:39:09 51°13.635 2°56.018 18.4013 0.120542 0.575417 -2.458615
2012-05-21 06:39:14 51°13.635 2°56.018 18.4003 0.120542 0.575417 -2.458615
2012-05-21 06:39:18 51°13.635 2°56.018 18.3983 0.120542 0.575425 -2.458615
2012-05-21 06:39:23 51°13.635 2°56.018 18.3986 0.120542 0.575425 -2.458615
2012-05-21 06:39:28 51°13.635 2°56.018 18.4028 0.120542 0.575433 -2.458615
2012-05-21 06:39:33 51°13.635 2°56.018 18.3997 0.120542 0.575433 -2.458615
2012-05-21 06:39:39 51°13.635 2°56.018 18.4012 0.120542 0.575433 -2.458615
2012-05-21 06:39:44 51°13.635 2°56.018 18.4018 0.120645 0.575952 -2.458615
2012-05-21 06:39:49 51°13.635 2°56.018 18.4034 0.120645 0.575952 -2.458615
2012-05-21 06:39:53 51°13.635 2°56.018 18.404 0.120645 0.575952 -2.458615
2012-05-21 06:39:58 51°13.635 2°56.018 18.4026 0.120645 0.575952 -2.458615
2012-05-21 06:40:03 51°13.635 2°56.018 18.4008 0.120542 0.57545 -2.458615
2012-05-21 06:40:08 51°13.636 2°56.018 18.4001 0.120542 0.57545 -2.458615
2012-05-21 06:40:13 51°13.636 2°56.018 18.4016 0.120542 0.57545 -2.458615
2012-05-21 06:40:18 51°13.636 2°56.018 18.4025 0.120542 0.575458 -2.458615
2012-05-21 06:40:23 51°13.636 2°56.019 18.4024 0.120645 0.575969 -2.458615
2012-05-21 06:40:29 51°13.636 2°56.019 18.4019 0.120645 0.575969 -2.458615
2012-05-21 06:40:34 51°13.636 2°56.019 18.4013 0.120542 0.575458 -2.458615
2012-05-21 06:40:39 51°13.635 2°56.019 18.4025 0.120542 0.575458 -2.458615
2012-05-21 06:40:44 51°13.635 2°56.019 18.4015 0.120645 0.575969 -2.458615
2012-05-21 06:40:48 51°13.635 2°56.019 18.401 0.120542 0.575467 -2.458615
2012-05-21 06:40:53 51°13.635 2°56.019 18.4006 0.120542 0.575475 -2.458615
2012-05-21 06:40:58 51°13.635 2°56.019 18.3987 0.120542 0.575475 -2.458615
2012-05-21 06:41:03 51°13.635 2°56.019 18.3996 0.120645 0.575986 -2.458615
2012-05-21 06:41:08 51°13.635 2°56.019 18.4001 0.120645 0.575986 -2.458615
2012-05-21 06:41:13 51°13.635 2°56.019 18.3984 0.120645 0.575986 -2.458615
2012-05-21 06:41:18 51°13.635 2°56.018 18.3979 0.120645 0.575994 -2.458615
2012-05-21 06:41:23 51°13.635 2°56.018 18.3985 0.120542 0.575484 -2.458615
2012-05-21 06:41:28 51°13.635 2°56.019 18.3993 0.120645 0.576003 -2.458615
2012-05-21 06:41:33 51°13.635 2°56.019 18.4007 0.120645 0.576003 -2.458615
2012-05-21 06:41:38 51°13.635 2°56.019 18.402 0.120645 0.576003 -2.458615
2012-05-21 06:41:44 51°13.635 2°56.019 18.4028 0.120542 0.575492 -2.458615
2012-05-21 06:41:49 51°13.635 2°56.019 18.4039 0.120542 0.5755 -2.458615
2012-05-21 06:41:54 51°13.635 2°56.019 18.3996 0.120542 0.575492 -2.458615
2012-05-21 06:41:59 51°13.635 2°56.019 18.3984 0.120542 0.5755 -2.458615
2012-05-21 06:42:04 51°13.635 2°56.019 18.4001 0.120542 0.575509 -2.458615
2012-05-21 06:42:09 51°13.635 2°56.019 18.4021 0.120542 0.575509 -2.458615
2012-05-21 06:42:14 51°13.635 2°56.019 18.404 0.120542 0.5755 -2.458615
2012-05-21 06:42:19 51°13.635 2°56.019 18.4039 0.120645 0.576019 -2.458615
2012-05-21 06:42:24 51°13.635 2°56.019 18.4039 0.120542 0.575517 -2.458615
2012-05-21 06:42:29 51°13.635 2°56.019 18.4061 0.120542 0.575517 -2.458615
2012-05-21 06:42:33 51°13.635 2°56.019 18.4062 0.120542 0.575517 -2.458615
2012-05-21 06:42:38 51°13.635 2°56.019 18.4065 0.120542 0.575517 -2.458615
2012-05-21 06:42:43 51°13.635 2°56.019 18.4061 0.120542 0.575525 -2.458615
2012-05-21 06:42:48 51°13.635 2°56.019 18.4063 0.120645 0.576036 -2.458615
2012-05-21 06:42:53 51°13.635 2°56.019 18.4056 0.120542 0.575525 -2.458615
2012-05-21 06:42:59 51°13.635 2°56.019 18.4064 0.120542 0.575534 -2.458615
2012-05-21 06:43:04 51°13.635 2°56.019 18.4028 0.120542 0.575534 -2.458615
2012-05-21 06:43:09 51°13.635 2°56.019 18.4026 0.120542 0.575534 -2.458615
2012-05-21 06:43:14 51°13.635 2°56.019 18.4041 0.120542 0.575534 -2.458615
2012-05-21 06:43:18 51°13.635 2°56.019 18.4069 0.120645 0.576044 -2.458615
2012-05-21 06:43:23 51°13.635 2°56.019 18.4077 0.120542 0.575542 -2.458615
2012-05-21 06:43:29 51°13.635 2°56.019 18.4081 0.120645 0.576053 -2.458615
2012-05-21 06:43:34 51°13.635 2°56.019 18.4106 0.120542 0.575542 -2.458615
2012-05-21 06:43:39 51°13.635 2°56.019 18.4106 0.120542 0.575542 -2.458615
2012-05-21 06:43:43 51°13.635 2°56.019 18.4115 0.120542 0.575542 -2.458615
2012-05-21 06:43:49 51°13.635 2°56.019 18.4108 0.120542 0.57555 -2.458615
2012-05-21 06:43:54 51°13.635 2°56.019 18.4102 0.120645 0.576061 -2.458615
2012-05-21 06:43:59 51°13.635 2°56.019 18.4113 0.120542 0.575559 -2.458615
2012-05-21 06:44:04 51°13.635 2°56.019 18.4124 0.120645 0.57607 -2.458615
2012-05-21 06:44:09 51°13.635 2°56.019 18.4136 0.120645 0.57607 -2.458615
2012-05-21 06:44:14 51°13.635 2°56.019 18.4146 0.120645 0.576078 -2.458615
2012-05-21 06:44:19 51°13.635 2°56.019 18.4132 0.120542 0.575567 -2.458615
2012-05-21 06:44:24 51°13.635 2°56.019 18.413 0.120645 0.576086 -2.458615
2012-05-21 06:44:29 51°13.635 2°56.019 18.4135 0.120542 0.575567 -2.458615
2012-05-21 06:44:34 51°13.635 2°56.019 18.4139 0.120542 0.575576 -2.458615
2012-05-21 06:44:39 51°13.635 2°56.019 18.4127 0.120542 0.575576 -2.458615
2012-05-21 06:44:44 51°13.635 2°56.019 18.4117 0.120542 0.575576 -2.458615
2012-05-21 06:44:49 51°13.635 2°56.019 18.4118 0.120542 0.575576 -2.458615
2012-05-21 06:44:54 51°13.635 2°56.019 18.4114 0.120542 0.575584 -2.458615
2012-05-21 06:44:59 51°13.635 2°56.018 18.4103 0.120542 0.575584 -2.458615
2012-05-21 06:45:04 51°13.635 2°56.019 18.4094 0.120542 0.575592 -2.458615
2012-05-21 06:45:09 51°13.636 2°56.018 18.4093 0.120645 0.576095 -2.458615
2012-05-21 06:45:14 51°13.636 2°56.019 18.4096 0.120645 0.576095 -2.458615
2012-05-21 06:45:18 51°13.636 2°56.019 18.4096 0.120542 0.575601 -2.458615
2012-05-21 06:45:24 51°13.636 2°56.019 18.4106 0.120542 0.575592 -2.458615
2012-05-21 06:45:28 51°13.636 2°56.019 18.4106 0.120542 0.575601 -2.458615
2012-05-21 06:45:34 51°13.636 2°56.019 18.4105 0.120542 0.575601 -2.458615
2012-05-21 06:45:39 51°13.636 2°56.019 18.4117 0.120542 0.575601 -2.458615
2012-05-21 06:45:44 51°13.636 2°56.019 18.4096 0.120542 0.575601 -2.458615
2012-05-21 06:45:49 51°13.636 2°56.019 18.4093 0.120542 0.575601 -2.458615
2012-05-21 06:45:54 51°13.636 2°56.019 18.4101 0.120542 0.575609 -2.458615
2012-05-21 06:45:59 51°13.636 2°56.019 18.4103 0.120542 0.575609 -2.458615
2012-05-21 06:46:04 51°13.636 2°56.019 18.4102 0.120542 0.575617 -2.458615
2012-05-21 06:46:09 51°13.636 2°56.019 18.412 0.120542 0.575617 -2.458615
2012-05-21 06:46:14 51°13.636 2°56.019 18.4129 0.120542 0.575617 -2.458615
2012-05-21 06:46:18 51°13.636 2°56.019 18.4128 0.120542 0.575617 -2.458615
2012-05-21 06:46:23 51°13.636 2°56.019 18.4136 0.120542 0.575617 -2.458615
2012-05-21 06:46:28 51°13.636 2°56.019 18.4148 0.120542 0.575617 -2.458615
2012-05-21 06:46:33 51°13.636 2°56.019 18.4154 0.120542 0.575626 -2.458615
2012-05-21 06:46:38 51°13.636 2°56.019 18.4165 0.120542 0.575626 -2.458615
2012-05-21 06:46:43 51°13.636 2°56.019 18.4172 0.120439 0.575115 -2.458615
2012-05-21 06:46:48 51°13.636 2°56.019 18.4173 0.120542 0.575634 -2.458615
2012-05-21 06:46:54 51°13.636 2°56.019 18.4158 0.120542 0.575634 -2.458615
2012-05-21 06:46:59 51°13.636 2°56.019 18.4147 0.120542 0.575634 -2.458615
2012-05-21 06:47:04 51°13.636 2°56.019 18.4185 0.120542 0.575634 -2.458615
2012-05-21 06:47:09 51°13.636 2°56.019 18.4203 0.120542 0.575634 -2.458615
2012-05-21 06:47:14 51°13.635 2°56.019 18.4227 0.120542 0.575643 -2.458615
2012-05-21 06:47:19 51°13.635 2°56.019 18.4157 0.120542 0.575651 -2.458615
2012-05-21 06:47:24 51°13.635 2°56.019 18.412 0.120645 0.576162 -2.458615
2012-05-21 06:47:29 51°13.635 2°56.019 18.4155 0.120542 0.575651 -2.458615
2012-05-21 06:47:33 51°13.635 2°56.019 18.4134 0.120439 0.57514 -2.458615
2012-05-21 06:47:38 51°13.635 2°56.019 18.4266 0.120439 0.57514 -2.458615
2012-05-21 06:47:43 51°13.636 2°56.019 18.423 0.120542 0.575659 -2.458615
2012-05-21 06:47:48 51°13.635 2°56.019 18.4193 0.120542 0.575659 -2.458615
2012-05-21 06:47:53 51°13.635 2°56.019 18.4171 0.120645 0.57617 -2.458615
2012-05-21 06:47:58 51°13.635 2°56.019 18.4223 0.120645 0.576178 -2.458615
2012-05-21 06:48:03 51°13.635 2°56.019 18.4225 0.120542 0.575668 -2.458615
2012-05-21 06:48:08 51°13.635 2°56.019 18.4239 0.120542 0.575668 -2.458615
2012-05-21 06:48:13 51°13.635 2°56.019 18.4248 0.120645 0.576178 -2.458615
2012-05-21 06:48:18 51°13.635 2°56.019 18.4263 0.120542 0.575668 -2.458615
2012-05-21 06:48:24 51°13.635 2°56.019 18.4269 0.120542 0.575676 -2.458615
2012-05-21 06:48:29 51°13.635 2°56.019 18.4282 0.120645 0.576187 -2.458615
2012-05-21 06:48:34 51°13.636 2°56.019 18.4268 0.120542 0.575684 -2.458615
2012-05-21 06:48:39 51°13.635 2°56.019 18.4248 0.120542 0.575684 -2.458615
2012-05-21 06:48:44 51°13.635 2°56.019 18.424 0.120645 0.576195 -2.458615
2012-05-21 06:48:49 51°13.635 2°56.019 18.4231 0.120542 0.575684 -2.458615
2012-05-21 06:48:54 51°13.635 2°56.019 18.4227 0.120542 0.575684 -2.458615
2012-05-21 06:48:59 51°13.635 2°56.019 18.424 0.120542 0.575693 -2.458615
2012-05-21 06:49:04 51°13.635 2°56.019 18.425 0.120542 0.575693 -2.458615
2012-05-21 06:49:09 51°13.635 2°56.019 18.4216 0.120542 0.575693 -2.458615
2012-05-21 06:49:14 51°13.635 2°56.019 18.4185 0.120542 0.575693 -2.458615
2012-05-21 06:49:19 51°13.635 2°56.019 18.4076 0.120542 0.575701 -2.458615
2012-05-21 06:49:24 51°13.635 2°56.019 18.4153 0.120542 0.575701 -2.458615
2012-05-21 06:49:29 51°13.635 2°56.019 18.4288 0.120542 0.57571 -2.458615
2012-05-21 06:49:34 51°13.635 2°56.019 18.4275 0.120542 0.57571 -2.458615
2012-05-21 06:49:39 51°13.635 2°56.019 18.4281 0.120645 0.576229 -2.458615
2012-05-21 06:49:44 51°13.635 2°56.019 18.4462 0.120645 0.576229 -2.458615
2012-05-21 06:49:49 51°13.635 2°56.019 18.4622 0.120542 0.57571 -2.458615
2012-05-21 06:49:54 51°13.635 2°56.019 18.4573 0.120542 0.575718 -2.458615
2012-05-21 06:49:59 51°13.635 2°56.019 18.453 0.120542 0.575718 -2.458615
2012-05-21 06:50:04 51°13.634 2°56.019 18.442 0.120542 0.575726 -2.458615
2012-05-21 06:50:09 51°13.634 2°56.019 18.4396 0.120542 0.575726 -2.458615
2012-05-21 06:50:14 51°13.635 2°56.019 18.4355 0.120542 0.575726 -2.458615
2012-05-21 06:50:19 51°13.635 2°56.019 18.4352 0.120542 0.575735 -2.458615
2012-05-21 06:50:24 51°13.634 2°56.019 18.4344 0.120542 0.575735 -2.458615
2012-05-21 06:50:29 51°13.634 2°56.019 18.4323 0.120542 0.575735 -2.458615
2012-05-21 06:50:34 51°13.634 2°56.019 18.4314 0.120542 0.575735 -2.458615
2012-05-21 06:50:39 51°13.634 2°56.019 18.4289 0.120542 0.575735 -2.458615
2012-05-21 06:50:44 51°13.634 2°56.019 18.4287 0.120542 0.575743 -2.458615
2012-05-21 06:50:49 51°13.634 2°56.019 18.4234 0.120439 0.575232 -2.458615
2012-05-21 06:50:54 51°13.634 2°56.019 18.4307 0.120542 0.575743 -2.458615
2012-05-21 06:50:59 51°13.634 2°56.019 18.4212 0.120542 0.575751 -2.458615
2012-05-21 06:51:04 51°13.634 2°56.019 18.4351 0.120542 0.575751 -2.458615
2012-05-21 06:51:09 51°13.634 2°56.019 18.4396 0.120542 0.575751 -2.458615
2012-05-21 06:51:14 51°13.634 2°56.019 18.4417 0.120542 0.57576 -2.458615
2012-05-21 06:51:19 51°13.634 2°56.019 18.4463 0.120645 0.576262 -2.458615
2012-05-21 06:51:24 51°13.634 2°56.019 18.448 0.120542 0.57576 -2.458615
2012-05-21 06:51:29 51°13.634 2°56.019 18.445 0.120542 0.575768 -2.458615
2012-05-21 06:51:34 51°13.634 2°56.019 18.4449 0.120542 0.575768 -2.458615
2012-05-21 06:51:39 51°13.634 2°56.019 18.4451 0.120542 0.575768 -2.458615
2012-05-21 06:51:44 51°13.634 2°56.019 18.4407 0.120542 0.575768 -2.458615
2012-05-21 06:51:49 51°13.634 2°56.019 18.4392 0.120439 0.575257 -2.458615
2012-05-21 06:51:54 51°13.634 2°56.019 18.4369 0.120439 0.575266 -2.458615
2012-05-21 06:51:58 51°13.634 2°56.019 18.4335 0.120542 0.575777 -2.458615
2012-05-21 06:52:03 51°13.634 2°56.019 18.4315 0.120542 0.575777 -2.458615
2012-05-21 06:52:09 51°13.634 2°56.019 18.4301 0.120542 0.575785 -2.458615
2012-05-21 06:52:14 51°13.634 2°56.019 18.4306 0.120542 0.575785 -2.458615
2012-05-21 06:52:18 51°13.634 2°56.019 18.4308 0.120542 0.575793 -2.458615
2012-05-21 06:52:24 51°13.634 2°56.019 18.4319 0.120542 0.575793 -2.458615
2012-05-21 06:52:28 51°13.634 2°56.019 18.4323 0.120542 0.575793 -2.458615
2012-05-21 06:52:34 51°13.634 2°56.019 18.4323 0.120439 0.575282 -2.458615
2012-05-21 06:52:39 51°13.634 2°56.019 18.4325 0.120439 0.575282 -2.458615
2012-05-21 06:52:44 51°13.634 2°56.019 18.4332 0.120439 0.575291 -2.458615
2012-05-21 06:52:48 51°13.634 2°56.019 18.4317 0.120439 0.575291 -2.458615
2012-05-21 06:52:53 51°13.634 2°56.019 18.4291 0.120542 0.57581 -2.458615
2012-05-21 06:52:59 51°13.634 2°56.019 18.4294 0.120542 0.57581 -2.458615
2012-05-21 06:53:04 51°13.634 2°56.019 18.4296 0.120439 0.575299 -2.458615
2012-05-21 06:53:09 51°13.634 2°56.019 18.4285 0.120439 0.575299 -2.458615
2012-05-21 06:53:14 51°13.634 2°56.019 18.4311 0.120439 0.575308 -2.458615
2012-05-21 06:53:19 51°13.634 2°56.019 18.4347 0.120542 0.575818 -2.458615
2012-05-21 06:53:24 51°13.634 2°56.019 18.4377 0.120542 0.575818 -2.458615
2012-05-21 06:53:29 51°13.634 2°56.019 18.4396 0.120542 0.575827 -2.458615
2012-05-21 06:53:33 51°13.634 2°56.019 18.4441 0.120542 0.575827 -2.458615
2012-05-21 06:53:39 51°13.634 2°56.02 18.4432 0.120542 0.575827 -2.458615
2012-05-21 06:53:43 51°13.634 2°56.02 18.4428 0.120542 0.575835 -2.458615
2012-05-21 06:53:48 51°13.634 2°56.02 18.449 0.120542 0.575835 -2.458615
2012-05-21 06:53:53 51°13.634 2°56.02 18.4514 0.120439 0.575333 -2.458615
2012-05-21 06:53:58 51°13.634 2°56.02 18.45 0.120439 0.575333 -2.458615
2012-05-21 06:54:03 51°13.634 2°56.019 18.4484 0.120542 0.575844 -2.458615
2012-05-21 06:54:08 51°13.634 2°56.02 18.4418 0.120542 0.575844 -2.458615
2012-05-21 06:54:13 51°13.634 2°56.019 18.4438 0.120542 0.575852 -2.458615
2012-05-21 06:54:18 51°13.635 2°56.019 18.445 0.120542 0.575852 -2.458615
2012-05-21 06:54:23 51°13.635 2°56.019 18.445 0.120542 0.575852 -2.458615
2012-05-21 06:54:28 51°13.635 2°56.019 18.4424 0.120542 0.57586 -2.458615
2012-05-21 06:54:33 51°13.635 2°56.019 18.4423 0.120542 0.57586 -2.458615
2012-05-21 06:54:38 51°13.635 2°56.019 18.4418 0.120542 0.575869 -2.458615
2012-05-21 06:54:43 51°13.635 2°56.019 18.442 0.120542 0.575869 -2.458615
2012-05-21 06:54:48 51°13.635 2°56.019 18.4414 0.120542 0.575869 -2.458615
2012-05-21 06:54:54 51°13.635 2°56.019 18.4433 0.120542 0.575869 -2.458615
2012-05-21 06:54:59 51°13.635 2°56.019 18.4429 0.120542 0.575877 -2.458615
2012-05-21 06:55:04 51°13.635 2°56.019 18.4417 0.120439 0.575366 -2.458615
2012-05-21 06:55:09 51°13.635 2°56.019 18.441 0.120439 0.575366 -2.458615
2012-05-21 06:55:14 51°13.635 2°56.019 18.4402 0.120542 0.575877 -2.458615
2012-05-21 06:55:19 51°13.635 2°56.019 18.4417 0.120439 0.575375 -2.458615
2012-05-21 06:55:24 51°13.635 2°56.019 18.4409 0.120542 0.575885 -2.458615
2012-05-21 06:55:29 51°13.635 2°56.019 18.442 0.120542 0.575894 -2.458615
2012-05-21 06:55:34 51°13.635 2°56.019 18.442 0.120542 0.575894 -2.458615
2012-05-21 06:55:39 51°13.635 2°56.019 18.4426 0.120542 0.575894 -2.458615
2012-05-21 06:55:44 51°13.635 2°56.019 18.443 0.120542 0.575902 -2.458615
2012-05-21 06:55:48 51°13.635 2°56.019 18.4434 0.120542 0.575902 -2.458615
2012-05-21 06:55:53 51°13.635 2°56.019 18.4448 0.120542 0.575902 -2.458615
2012-05-21 06:55:58 51°13.635 2°56.019 18.444 0.120542 0.575911 -2.458615
2012-05-21 06:56:03 51°13.635 2°56.019 18.4443 0.120542 0.575911 -2.458615
2012-05-21 06:56:08 51°13.636 2°56.019 18.4444 0.120542 0.575911 -2.458615
2012-05-21 06:56:14 51°13.636 2°56.019 18.4433 0.120542 0.575911 -2.458615
2012-05-21 06:56:19 51°13.636 2°56.019 18.4388 0.120542 0.575919 -2.458615
2012-05-21 06:56:24 51°13.636 2°56.019 18.4452 0.120542 0.575927 -2.458615
2012-05-21 06:56:29 51°13.636 2°56.019 18.4404 0.120542 0.575927 -2.458615
2012-05-21 06:56:34 51°13.636 2°56.019 18.4417 0.120542 0.575927 -2.458615
2012-05-21 06:56:39 51°13.636 2°56.019 18.4463 0.120542 0.575936 -2.458615
2012-05-21 06:56:44 51°13.636 2°56.019 18.4436 0.120542 0.575936 -2.458615
2012-05-21 06:56:49 51°13.636 2°56.019 18.4415 0.120439 0.575425 -2.458615
2012-05-21 06:56:54 51°13.636 2°56.019 18.4411 0.120439 0.575425 -2.458615
2012-05-21 06:56:58 51°13.636 2°56.019 18.4429 0.120439 0.575433 -2.458615
2012-05-21 06:57:03 51°13.636 2°56.019 18.442 0.120439 0.575433 -2.458615
2012-05-21 06:57:09 51°13.636 2°56.019 18.4429 0.120439 0.575433 -2.458615
2012-05-21 06:57:14 51°13.637 2°56.019 18.4424 0.120542 0.575944 -2.458615
2012-05-21 06:57:18 51°13.637 2°56.019 18.449 0.120542 0.575953 -2.458615
2012-05-21 06:57:23 51°13.637 2°56.019 18.4472 0.120542 0.575953 -2.458615
2012-05-21 06:57:28 51°13.637 2°56.019 18.4506 0.120542 0.575961 -2.458615
2012-05-21 06:57:33 51°13.637 2°56.019 18.4485 0.120439 0.57545 -2.458615
2012-05-21 06:57:38 51°13.637 2°56.019 18.4439 0.120439 0.57545 -2.458615
2012-05-21 06:57:43 51°13.637 2°56.019 18.4474 0.120439 0.57545 -2.458615
2012-05-21 06:57:48 51°13.637 2°56.019 18.4439 0.120542 0.575969 -2.458615
2012-05-21 06:57:53 51°13.637 2°56.019 18.4464 0.120542 0.575978 -2.458615
2012-05-21 06:57:58 51°13.637 2°56.019 18.4503 0.120542 0.575978 -2.458615
2012-05-21 06:58:04 51°13.637 2°56.019 18.4541 0.120542 0.575978 -2.458615
2012-05-21 06:58:08 51°13.637 2°56.019 18.4518 0.120542 0.575978 -2.458615
2012-05-21 06:58:14 51°13.637 2°56.019 18.4486 0.120439 0.575467 -2.458615
2012-05-21 06:58:18 51°13.637 2°56.019 18.45 0.120542 0.575986 -2.458615
2012-05-21 06:58:23 51°13.637 2°56.019 18.4499 0.120439 0.575475 -2.458615
2012-05-21 06:58:28 51°13.637 2°56.019 18.4505 0.120542 0.575994 -2.458615
2012-05-21 06:58:33 51°13.637 2°56.019 18.4411 0.120542 0.575994 -2.458615
2012-05-21 06:58:38 51°13.637 2°56.019 18.4424 0.120542 0.575994 -2.458615
2012-05-21 06:58:44 51°13.637 2°56.019 18.4426 0.120439 0.575492 -2.458615
2012-05-21 06:58:48 51°13.637 2°56.019 18.4478 0.120542 0.575994 -2.458615
2012-05-21 06:58:53 51°13.637 2°56.019 18.4504 0.120542 0.576003 -2.458615
2012-05-21 06:58:58 51°13.637 2°56.019 18.4492 0.120439 0.5755 -2.458615
2012-05-21 06:59:03 51°13.637 2°56.019 18.4476 0.120542 0.576011 -2.458615
2012-05-21 06:59:08 51°13.637 2°56.019 18.449 0.120542 0.576011 -2.458615
2012-05-21 06:59:13 51°13.637 2°56.018 18.4489 0.120542 0.576011 -2.458615
2012-05-21 06:59:18 51°13.637 2°56.018 18.4471 0.120542 0.57602 -2.458615
2012-05-21 06:59:24 51°13.637 2°56.018 18.4487 0.120542 0.576011 -2.458615
2012-05-21 06:59:28 51°13.637 2°56.018 18.4485 0.120439 0.575517 -2.458615
2012-05-21 06:59:33 51°13.637 2°56.018 18.4536 0.120542 0.576028 -2.458615
2012-05-21 06:59:38 51°13.637 2°56.018 18.4597 0.120542 0.576028 -2.458615
2012-05-21 06:59:44 51°13.637 2°56.018 18.4597 0.120439 0.575517 -2.458615
2012-05-21 06:59:49 51°13.637 2°56.018 18.4609 0.120439 0.575525 -2.458615
2012-05-21 06:59:54 51°13.637 2°56.018 18.4584 0.120542 0.576028 -2.458615
2012-05-21 06:59:59 51°13.637 2°56.019 18.4568 0.120439 0.575525 -2.458615
2012-05-21 07:00:04 51°13.637 2°56.018 18.4539 0.120542 0.576045 -2.458615
2012-05-21 07:00:09 51°13.637 2°56.018 18.4549 0.120542 0.576045 -2.458615
2012-05-21 07:00:14 51°13.637 2°56.018 18.4543 0.120542 0.576045 -2.458615
2012-05-21 07:00:19 51°13.637 2°56.018 18.4574 0.120439 0.575534 -2.458615
2012-05-21 07:00:24 51°13.637 2°56.018 18.4591 0.120439 0.575542 -2.458615
2012-05-21 07:00:29 51°13.637 2°56.019 18.4568 0.120439 0.575542 -2.458615
2012-05-21 07:00:34 51°13.637 2°56.019 18.4573 0.120542 0.576062 -2.458615
2012-05-21 07:00:39 51°13.637 2°56.019 18.4567 0.120542 0.576062 -2.458615
2012-05-21 07:00:44 51°13.637 2°56.019 18.4558 0.120439 0.57555 -2.458615
2012-05-21 07:00:49 51°13.637 2°56.019 18.4536 0.120542 0.576062 -2.458615
2012-05-21 07:00:54 51°13.637 2°56.019 18.4561 0.120542 0.576062 -2.458615
2012-05-21 07:00:59 51°13.637 2°56.019 18.4566 0.120439 0.575559 -2.458615
2012-05-21 07:01:04 51°13.637 2°56.019 18.4549 0.120439 0.575559 -2.458615
2012-05-21 07:01:09 51°13.637 2°56.019 18.4591 0.120439 0.575559 -2.458615
2012-05-21 07:01:14 51°13.637 2°56.018 18.4558 0.120439 0.575559 -2.458615
2012-05-21 07:01:19 51°13.637 2°56.018 18.4579 0.120439 0.575567 -2.458615
2012-05-21 07:01:24 51°13.637 2°56.018 18.4575 0.120439 0.575567 -2.458615
2012-05-21 07:01:29 51°13.637 2°56.018 18.4568 0.120439 0.575567 -2.458615
2012-05-21 07:01:34 51°13.637 2°56.019 18.4557 0.120439 0.575576 -2.458615
2012-05-21 07:01:39 51°13.637 2°56.019 18.4573 0.120439 0.575576 -2.458615
2012-05-21 07:01:44 51°13.637 2°56.019 18.4582 0.120542 0.576087 -2.458615
2012-05-21 07:01:49 51°13.637 2°56.019 18.4584 0.120439 0.575584 -2.458615
2012-05-21 07:01:54 51°13.637 2°56.019 18.4567 0.120542 0.576095 -2.458615
2012-05-21 07:01:59 51°13.637 2°56.019 18.4568 0.120439 0.575592 -2.458615
2012-05-21 07:02:04 51°13.637 2°56.019 18.4564 0.120439 0.575592 -2.458615
2012-05-21 07:02:09 51°13.637 2°56.019 18.4574 0.120439 0.575592 -2.458615
2012-05-21 07:02:14 51°13.638 2°56.019 18.4589 0.120439 0.575601 -2.458615
2012-05-21 07:02:19 51°13.637 2°56.019 18.459 0.120542 0.576103 -2.458615
2012-05-21 07:02:24 51°13.637 2°56.019 18.4584 0.120439 0.575601 -2.458615
2012-05-21 07:02:29 51°13.638 2°56.019 18.4589 0.120439 0.575601 -2.458615
2012-05-21 07:02:34 51°13.638 2°56.019 18.4567 0.120542 0.57612 -2.458615
2012-05-21 07:02:39 51°13.637 2°56.019 18.4612 0.120542 0.57612 -2.458615
2012-05-21 07:02:44 51°13.638 2°56.019 18.472 0.120542 0.57612 -2.458615
2012-05-21 07:02:49 51°13.638 2°56.019 18.4696 0.120439 0.575617 -2.458615
2012-05-21 07:02:54 51°13.638 2°56.019 18.4643 0.120439 0.575617 -2.458615
2012-05-21 07:02:59 51°13.638 2°56.02 18.4651 0.120542 0.576137 -2.458615
2012-05-21 07:03:04 51°13.638 2°56.02 18.4675 0.120439 0.575626 -2.458615
2012-05-21 07:03:09 51°13.639 2°56.02 18.4674 0.120439 0.575626 -2.458615
2012-05-21 07:03:14 51°13.639 2°56.02 18.4625 0.120439 0.575626 -2.458615
2012-05-21 07:03:19 51°13.639 2°56.02 18.4636 0.120439 0.575626 -2.458615
2012-05-21 07:03:24 51°13.638 2°56.02 18.4597 0.120439 0.575634 -2.458615
2012-05-21 07:03:29 51°13.638 2°56.02 18.466 0.120542 0.576145 -2.458615
2012-05-21 07:03:34 51°13.638 2°56.02 18.4632 0.120542 0.576145 -2.458615
2012-05-21 07:03:39 51°13.638 2°56.02 18.4635 0.120542 0.576145 -2.458615
2012-05-21 07:03:44 51°13.638 2°56.02 18.4662 0.120439 0.575643 -2.458615
2012-05-21 07:03:49 51°13.638 2°56.021 18.4649 0.120542 0.576154 -2.458615
2012-05-21 07:03:54 51°13.638 2°56.02 18.4622 0.120439 0.575651 -2.458615
2012-05-21 07:03:59 51°13.638 2°56.02 18.4608 0.120439 0.575651 -2.458615
2012-05-21 07:04:04 51°13.638 2°56.02 18.4606 0.120439 0.575651 -2.458615
2012-05-21 07:04:09 51°13.638 2°56.02 18.4617 0.120439 0.575651 -2.458615
2012-05-21 07:04:14 51°13.638 2°56.02 18.4717 0.120439 0.575659 -2.458615
2012-05-21 07:04:19 51°13.638 2°56.02 18.4727 0.120542 0.576171 -2.458615
2012-05-21 07:04:24 51°13.638 2°56.02 18.4671 0.120439 0.575668 -2.458615
2012-05-21 07:04:29 51°13.638 2°56.02 18.4687 0.120542 0.576179 -2.458615
2012-05-21 07:04:34 51°13.638 2°56.02 18.4624 0.120542 0.576187 -2.458615
2012-05-21 07:04:39 51°13.638 2°56.02 18.4622 0.120542 0.576187 -2.458615
2012-05-21 07:04:44 51°13.638 2°56.019 18.4647 0.120439 0.575668 -2.458615
2012-05-21 07:04:49 51°13.638 2°56.019 18.4712 0.120542 0.576187 -2.458615
2012-05-21 07:04:54 51°13.638 2°56.019 18.4678 0.120542 0.576196 -2.458615
2012-05-21 07:04:59 51°13.638 2°56.019 18.4765 0.120439 0.575685 -2.458615
2012-05-21 07:05:04 51°13.638 2°56.019 18.4751 0.120439 0.575685 -2.458615
2012-05-21 07:05:09 51°13.638 2°56.019 18.4737 0.120439 0.575685 -2.458615
2012-05-21 07:05:14 51°13.638 2°56.019 18.4728 0.120439 0.575685 -2.458615
2012-05-21 07:05:19 51°13.638 2°56.019 18.4728 0.120439 0.575693 -2.458615
2012-05-21 07:05:24 51°13.638 2°56.019 18.4733 0.120439 0.575693 -2.458615
2012-05-21 07:05:29 51°13.638 2°56.019 18.4749 0.120439 0.575693 -2.458615
2012-05-21 07:05:34 51°13.638 2°56.019 18.4754 0.120542 0.576213 -2.458615
2012-05-21 07:05:39 51°13.638 2°56.019 18.471 0.120542 0.576213 -2.458615
2012-05-21 07:05:44 51°13.638 2°56.019 18.4703 0.120542 0.576221 -2.458615
2012-05-21 07:05:49 51°13.638 2°56.019 18.4685 0.120542 0.576213 -2.458615
2012-05-21 07:05:54 51°13.638 2°56.019 18.4692 0.120439 0.575718 -2.458615
2012-05-21 07:05:59 51°13.638 2°56.019 18.4697 0.120439 0.575718 -2.458615
2012-05-21 07:06:04 51°13.638 2°56.019 18.4691 0.120439 0.575718 -2.458615
2012-05-21 07:06:09 51°13.638 2°56.019 18.4665 0.120439 0.575718 -2.458615
2012-05-21 07:06:14 51°13.638 2°56.019 18.4675 0.120439 0.575718 -2.458615
2012-05-21 07:06:19 51°13.638 2°56.019 18.4703 0.120439 0.575726 -2.458615
2012-05-21 07:06:24 51°13.638 2°56.019 18.471 0.120439 0.575726 -2.458615
2012-05-21 07:06:29 51°13.638 2°56.019 18.4674 0.120439 0.575735 -2.458615
2012-05-21 07:06:34 51°13.638 2°56.019 18.4683 0.120439 0.575735 -2.458615
2012-05-21 07:06:39 51°13.638 2°56.019 18.4688 0.120542 0.576255 -2.458615
2012-05-21 07:06:44 51°13.638 2°56.019 18.4682 0.120542 0.576255 -2.458615
2012-05-21 07:06:49 51°13.638 2°56.019 18.4727 0.120439 0.575743 -2.458615
2012-05-21 07:06:54 51°13.638 2°56.019 18.4675 0.120439 0.575743 -2.458615
2012-05-21 07:06:59 51°13.637 2°56.019 18.4739 0.120439 0.575752 -2.458615
2012-05-21 07:07:03 51°13.637 2°56.019 18.4591 0.120439 0.575752 -2.458615
2012-05-21 07:07:09 51°13.637 2°56.019 18.4742 0.120439 0.575752 -2.458615
2012-05-21 07:07:14 51°13.637 2°56.019 18.4785 0.120439 0.57576 -2.458615
2012-05-21 07:07:19 51°13.637 2°56.019 18.4744 0.120439 0.57576 -2.458615
2012-05-21 07:07:24 51°13.638 2°56.019 18.4744 0.120542 0.57628 -2.458615
2012-05-21 07:07:29 51°13.638 2°56.019 18.4776 0.120439 0.575768 -2.458615
2012-05-21 07:07:34 51°13.638 2°56.019 18.4843 0.120542 0.57628 -2.458615
2012-05-21 07:07:39 51°13.638 2°56.019 18.481 0.120439 0.575768 -2.458615
2012-05-21 07:07:44 51°13.638 2°56.019 18.4823 0.120439 0.575768 -2.458615
2012-05-21 07:07:49 51°13.638 2°56.019 18.4793 0.120439 0.575777 -2.458615
2012-05-21 07:07:54 51°13.638 2°56.019 18.4803 0.120542 0.576296 -2.458615
2012-05-21 07:07:59 51°13.638 2°56.019 18.4789 0.120439 0.575785 -2.458615
2012-05-21 07:08:04 51°13.638 2°56.019 18.4832 0.120439 0.575794 -2.458615
2012-05-21 07:08:09 51°13.638 2°56.019 18.4922 0.120439 0.575794 -2.458615
2012-05-21 07:08:14 51°13.638 2°56.019 18.5009 0.120439 0.575794 -2.458615
2012-05-21 07:08:19 51°13.638 2°56.018 18.4846 0.120439 0.575802 -2.458615
2012-05-21 07:08:24 51°13.637 2°56.018 18.4943 0.120336 0.575291 -2.458615
2012-05-21 07:08:29 51°13.637 2°56.018 18.4871 0.120439 0.575802 -2.458615
2012-05-21 07:08:34 51°13.637 2°56.018 18.4905 0.120439 0.575802 -2.458615
2012-05-21 07:08:39 51°13.637 2°56.018 18.4889 0.120439 0.575802 -2.458615
2012-05-21 07:08:44 51°13.637 2°56.018 18.4868 0.120439 0.57581 -2.458615
2012-05-21 07:08:49 51°13.637 2°56.018 18.4859 0.120439 0.57581 -2.458615
2012-05-21 07:08:54 51°13.638 2°56.018 18.4857 0.120439 0.575819 -2.458615
2012-05-21 07:08:59 51°13.637 2°56.018 18.4831 0.120439 0.575819 -2.458615
2012-05-21 07:09:04 51°13.637 2°56.018 18.482 0.120439 0.575819 -2.458615
2012-05-21 07:09:09 51°13.637 2°56.019 18.485 0.120439 0.575819 -2.458615
2012-05-21 07:09:14 51°13.637 2°56.019 18.4849 0.120439 0.575827 -2.458615
2012-05-21 07:09:19 51°13.637 2°56.019 18.4844 0.120439 0.575827 -2.458615
2012-05-21 07:09:23 51°13.637 2°56.019 18.4841 0.120439 0.575835 -2.458615
2012-05-21 07:09:29 51°13.637 2°56.019 18.4879 0.120439 0.575835 -2.458615
2012-05-21 07:09:34 51°13.637 2°56.019 18.4899 0.120439 0.575844 -2.458615
2012-05-21 07:09:39 51°13.637 2°56.019 18.4933 0.120439 0.575844 -2.458615
2012-05-21 07:09:44 51°13.637 2°56.019 18.4872 0.120439 0.575844 -2.458615
2012-05-21 07:09:49 51°13.637 2°56.019 18.4825 0.120439 0.575844 -2.458615
2012-05-21 07:09:54 51°13.637 2°56.019 18.4833 0.120439 0.575852 -2.458615
2012-05-21 07:09:59 51°13.636 2°56.019 18.4855 0.120439 0.575852 -2.458615
2012-05-21 07:10:04 51°13.637 2°56.019 18.4872 0.120439 0.575861 -2.458615
2012-05-21 07:10:09 51°13.637 2°56.019 18.4965 0.120439 0.575861 -2.458615
2012-05-21 07:10:14 51°13.637 2°56.019 18.4888 0.120439 0.575861 -2.458615
2012-05-21 07:10:19 51°13.637 2°56.019 18.4863 0.120542 0.576372 -2.458615
2012-05-21 07:10:24 51°13.637 2°56.019 18.4857 0.120439 0.575877 -2.458615
2012-05-21 07:10:29 51°13.637 2°56.019 18.488 0.120439 0.575869 -2.458615
2012-05-21 07:10:34 51°13.637 2°56.019 18.5005 0.120542 0.576389 -2.458615
2012-05-21 07:10:39 51°13.637 2°56.019 18.4994 0.120542 0.576389 -2.458615
2012-05-21 07:10:44 51°13.637 2°56.019 18.4911 0.120439 0.575886 -2.458615
2012-05-21 07:10:49 51°13.637 2°56.019 18.4916 0.120439 0.575886 -2.458615
2012-05-21 07:10:53 51°13.637 2°56.018 18.4915 0.120439 0.575886 -2.458615
2012-05-21 07:10:59 51°13.636 2°56.019 18.4869 0.120439 0.575894 -2.458615
2012-05-21 07:11:04 51°13.636 2°56.019 18.4885 0.120336 0.575383 -2.458615
2012-05-21 07:11:09 51°13.636 2°56.019 18.4899 0.120336 0.575391 -2.458615
2012-05-21 07:11:14 51°13.636 2°56.019 18.4896 0.120336 0.575391 -2.458615
2012-05-21 07:11:19 51°13.636 2°56.019 18.4904 0.120439 0.575903 -2.458615
2012-05-21 07:11:24 51°13.636 2°56.019 18.4894 0.120439 0.575911 -2.458615
2012-05-21 07:11:29 51°13.636 2°56.019 18.4842 0.120336 0.5754 -2.458615
2012-05-21 07:11:34 51°13.636 2°56.019 18.4846 0.120439 0.575911 -2.458615
2012-05-21 07:11:39 51°13.636 2°56.019 18.4841 0.120439 0.575911 -2.458615
2012-05-21 07:11:43 51°13.636 2°56.019 18.4872 0.120439 0.575911 -2.458615
2012-05-21 07:11:49 51°13.635 2°56.019 18.4885 0.120439 0.575919 -2.458615
2012-05-21 07:11:54 51°13.635 2°56.019 18.4898 0.120439 0.575919 -2.458615
2012-05-21 07:11:59 51°13.635 2°56.019 18.4866 0.120439 0.575928 -2.458615
2012-05-21 07:12:04 51°13.635 2°56.019 18.488 0.120439 0.575928 -2.458615
2012-05-21 07:12:09 51°13.635 2°56.019 18.489 0.120439 0.575928 -2.458615
2012-05-21 07:12:14 51°13.635 2°56.019 18.4875 0.120439 0.575936 -2.458615
2012-05-21 07:12:19 51°13.635 2°56.019 18.4883 0.120439 0.575936 -2.458615
2012-05-21 07:12:24 51°13.635 2°56.019 18.4948 0.120439 0.575945 -2.458615
2012-05-21 07:12:29 51°13.635 2°56.019 18.4881 0.120439 0.575945 -2.458615
2012-05-21 07:12:34 51°13.635 2°56.019 18.4926 0.120439 0.575953 -2.458615
2012-05-21 07:12:39 51°13.635 2°56.019 18.5012 0.120439 0.575945 -2.458615
2012-05-21 07:12:44 51°13.634 2°56.019 18.5052 0.120439 0.575945 -2.458615
2012-05-21 07:12:49 51°13.634 2°56.019 18.5068 0.120439 0.575953 -2.458615
2012-05-21 07:12:54 51°13.634 2°56.019 18.5086 0.120439 0.575961 -2.458615
2012-05-21 07:12:59 51°13.634 2°56.019 18.4989 0.120439 0.575961 -2.458615
2012-05-21 07:13:04 51°13.634 2°56.019 18.4977 0.120336 0.575458 -2.458615
2012-05-21 07:13:09 51°13.634 2°56.019 18.4984 0.120336 0.575458 -2.458615
2012-05-21 07:13:14 51°13.635 2°56.019 18.4929 0.120439 0.57597 -2.458615
2012-05-21 07:13:19 51°13.634 2°56.019 18.4942 0.120439 0.57597 -2.458615
2012-05-21 07:13:24 51°13.635 2°56.019 18.4946 0.120439 0.575978 -2.458615
2012-05-21 07:13:29 51°13.635 2°56.019 18.4955 0.120336 0.575475 -2.458615
2012-05-21 07:13:33 51°13.635 2°56.019 18.4983 0.120439 0.575987 -2.458615
2012-05-21 07:13:39 51°13.635 2°56.019 18.5024 0.120439 0.575987 -2.458615
2012-05-21 07:13:44 51°13.635 2°56.019 18.4991 0.120439 0.575987 -2.458615
2012-05-21 07:13:48 51°13.635 2°56.019 18.491 0.120439 0.575987 -2.458615
2012-05-21 07:13:54 51°13.635 2°56.019 18.4852 0.120336 0.575483 -2.458615
2012-05-21 07:13:59 51°13.634 2°56.019 18.4957 0.120439 0.576003 -2.458615
2012-05-21 07:14:04 51°13.635 2°56.019 18.4918 0.120439 0.576003 -2.458615
2012-05-21 07:14:09 51°13.635 2°56.019 18.4966 0.120439 0.576003 -2.458615
2012-05-21 07:14:14 51°13.635 2°56.019 18.4988 0.120439 0.576003 -2.458615
2012-05-21 07:14:19 51°13.634 2°56.019 18.498 0.120336 0.575492 -2.458615
2012-05-21 07:14:23 51°13.634 2°56.019 18.4964 0.120336 0.5755 -2.458615
2012-05-21 07:14:29 51°13.634 2°56.019 18.4983 0.120439 0.576012 -2.458615
2012-05-21 07:14:34 51°13.634 2°56.019 18.4986 0.120336 0.575509 -2.458615
2012-05-21 07:14:39 51°13.634 2°56.019 18.4957 0.120336 0.575509 -2.458615
2012-05-21 07:14:44 51°13.634 2°56.019 18.4926 0.120336 0.575509 -2.458615
2012-05-21 07:14:49 51°13.634 2°56.019 18.4892 0.120439 0.57602 -2.458615
2012-05-21 07:14:54 51°13.634 2°56.019 18.4937 0.120542 0.57654 -2.458615
2012-05-21 07:14:59 51°13.634 2°56.019 18.494 0.120439 0.576029 -2.458615
2012-05-21 07:15:04 51°13.634 2°56.019 18.5045 0.120336 0.575525 -2.458615
2012-05-21 07:15:09 51°13.634 2°56.019 18.5027 0.120336 0.575525 -2.458615
2012-05-21 07:15:14 51°13.634 2°56.019 18.5056 0.120439 0.576037 -2.458615
2012-05-21 07:15:19 51°13.635 2°56.019 18.5022 0.120336 0.575525 -2.458615
2012-05-21 07:15:24 51°13.635 2°56.019 18.5004 0.120336 0.575534 -2.458615
2012-05-21 07:15:29 51°13.635 2°56.019 18.5009 0.120336 0.575534 -2.458615
2012-05-21 07:15:34 51°13.634 2°56.019 18.502 0.120439 0.576054 -2.458615
2012-05-21 07:15:39 51°13.634 2°56.019 18.4994 0.120439 0.576054 -2.458615
2012-05-21 07:15:44 51°13.634 2°56.019 18.4959 0.120439 0.576062 -2.458615
2012-05-21 07:15:49 51°13.634 2°56.019 18.4966 0.120439 0.576062 -2.458615
2012-05-21 07:15:54 51°13.634 2°56.019 18.4947 0.120439 0.57607 -2.458615
2012-05-21 07:15:59 51°13.634 2°56.019 18.4885 0.120439 0.57607 -2.458615
2012-05-21 07:16:04 51°13.635 2°56.019 18.4938 0.120439 0.57607 -2.458615
2012-05-21 07:16:09 51°13.635 2°56.018 18.5007 0.120439 0.57607 -2.458615
2012-05-21 07:16:14 51°13.635 2°56.018 18.5026 0.120439 0.57607 -2.458615
2012-05-21 07:16:19 51°13.635 2°56.018 18.4999 0.120336 0.575567 -2.458615
2012-05-21 07:16:24 51°13.635 2°56.018 18.5023 0.120336 0.575567 -2.458615
2012-05-21 07:16:29 51°13.635 2°56.017 18.4971 0.120336 0.575567 -2.458615
2012-05-21 07:16:34 51°13.635 2°56.017 18.5007 0.120439 0.576087 -2.458615
2012-05-21 07:16:39 51°13.635 2°56.018 18.5004 0.120439 0.576087 -2.458615
2012-05-21 07:16:44 51°13.635 2°56.018 18.5001 0.120439 0.576087 -2.458615
2012-05-21 07:16:49 51°13.635 2°56.018 18.5016 0.120439 0.576087 -2.458615
2012-05-21 07:16:54 51°13.635 2°56.018 18.498 0.120439 0.576096 -2.458615
2012-05-21 07:16:59 51°13.635 2°56.018 18.4951 0.120336 0.575593 -2.458615
2012-05-21 07:17:04 51°13.635 2°56.018 18.4947 0.120439 0.576112 -2.458615
2012-05-21 07:17:09 51°13.635 2°56.018 18.4921 0.120439 0.576112 -2.458615
2012-05-21 07:17:14 51°13.635 2°56.018 18.4967 0.120439 0.576104 -2.458615
2012-05-21 07:17:19 51°13.635 2°56.018 18.498 0.120336 0.575601 -2.458615
2012-05-21 07:17:23 51°13.635 2°56.018 18.5048 0.120439 0.576112 -2.458615
2012-05-21 07:17:29 51°13.635 2°56.018 18.5016 0.120336 0.575609 -2.458615
2012-05-21 07:17:34 51°13.635 2°56.018 18.507 0.120336 0.575609 -2.458615
2012-05-21 07:17:39 51°13.636 2°56.018 18.5067 0.120336 0.575609 -2.458615
2012-05-21 07:17:44 51°13.636 2°56.018 18.5061 0.120439 0.576121 -2.458615
2012-05-21 07:17:49 51°13.636 2°56.018 18.5041 0.120439 0.576129 -2.458615
2012-05-21 07:17:54 51°13.636 2°56.018 18.5048 0.120439 0.576129 -2.458615
2012-05-21 07:17:59 51°13.636 2°56.017 18.5009 0.120439 0.576138 -2.458615
2012-05-21 07:18:04 51°13.636 2°56.017 18.5014 0.120336 0.575626 -2.458615
2012-05-21 07:18:09 51°13.635 2°56.017 18.5031 0.120336 0.575626 -2.458615
2012-05-21 07:18:14 51°13.636 2°56.017 18.5015 0.120439 0.576138 -2.458615
2012-05-21 07:18:19 51°13.636 2°56.017 18.5008 0.120439 0.576146 -2.458615
2012-05-21 07:18:24 51°13.636 2°56.017 18.4995 0.120439 0.576154 -2.458615
2012-05-21 07:18:29 51°13.635 2°56.017 18.4948 0.120336 0.575643 -2.458615
2012-05-21 07:18:34 51°13.635 2°56.017 18.4985 0.120336 0.575643 -2.458615
2012-05-21 07:18:39 51°13.635 2°56.017 18.5031 0.120336 0.575643 -2.458615
2012-05-21 07:18:44 51°13.635 2°56.017 18.5073 0.120439 0.576154 -2.458615
2012-05-21 07:18:49 51°13.635 2°56.017 18.5091 0.120439 0.576154 -2.458615
2012-05-21 07:18:54 51°13.636 2°56.017 18.4978 0.120336 0.57566 -2.458615
2012-05-21 07:18:59 51°13.636 2°56.017 18.5078 0.120336 0.57566 -2.458615
2012-05-21 07:19:04 51°13.636 2°56.017 18.5144 0.120439 0.576171 -2.458615
2012-05-21 07:19:09 51°13.636 2°56.017 18.5157 0.120439 0.576171 -2.458615
2012-05-21 07:19:14 51°13.636 2°56.017 18.511 0.120439 0.576171 -2.458615
2012-05-21 07:19:19 51°13.636 2°56.017 18.5099 0.120439 0.57618 -2.458615
2012-05-21 07:19:23 51°13.636 2°56.017 18.5088 0.120336 0.575668 -2.458615
2012-05-21 07:19:29 51°13.636 2°56.017 18.5081 0.120336 0.575676 -2.458615
2012-05-21 07:19:34 51°13.636 2°56.017 18.507 0.120439 0.576188 -2.458615
2012-05-21 07:19:39 51°13.636 2°56.017 18.5055 0.120439 0.576188 -2.458615
2012-05-21 07:19:44 51°13.636 2°56.017 18.499 0.120439 0.576196 -2.458615
2012-05-21 07:19:49 51°13.636 2°56.017 18.4968 0.120336 0.575693 -2.458615
2012-05-21 07:19:54 51°13.636 2°56.017 18.5035 0.120336 0.575693 -2.458615
2012-05-21 07:19:59 51°13.636 2°56.017 18.5039 0.120439 0.576205 -2.458615
2012-05-21 07:20:04 51°13.636 2°56.017 18.5012 0.120439 0.576205 -2.458615
2012-05-21 07:20:09 51°13.636 2°56.017 18.4978 0.120439 0.576205 -2.458615
2012-05-21 07:20:14 51°13.636 2°56.017 18.4981 0.120439 0.576213 -2.458615
2012-05-21 07:20:18 51°13.636 2°56.017 18.5057 0.120336 0.575702 -2.458615
2012-05-21 07:20:24 51°13.636 2°56.017 18.5097 0.120336 0.57571 -2.458615
2012-05-21 07:20:29 51°13.636 2°56.017 18.5113 0.120336 0.57571 -2.458615
2012-05-21 07:20:34 51°13.636 2°56.017 18.5083 0.120439 0.57623 -2.458615
2012-05-21 07:20:39 51°13.636 2°56.017 18.5053 0.120439 0.57623 -2.458615
2012-05-21 07:20:44 51°13.636 2°56.017 18.5058 0.120439 0.576222 -2.458615
2012-05-21 07:20:49 51°13.636 2°56.017 18.5087 0.120439 0.57623 -2.458615
2012-05-21 07:20:54 51°13.636 2°56.017 18.5044 0.120336 0.575727 -2.458615
2012-05-21 07:20:59 51°13.636 2°56.017 18.4976 0.120336 0.575727 -2.458615
2012-05-21 07:21:04 51°13.636 2°56.017 18.4987 0.120336 0.575727 -2.458615
2012-05-21 07:21:09 51°13.636 2°56.017 18.5002 0.120336 0.575727 -2.458615
2012-05-21 07:21:14 51°13.636 2°56.017 18.5009 0.120439 0.576247 -2.458615
2012-05-21 07:21:19 51°13.636 2°56.016 18.4994 0.120439 0.576247 -2.458615
2012-05-21 07:21:24 51°13.636 2°56.016 18.5008 0.120439 0.576255 -2.458615
2012-05-21 07:21:29 51°13.636 2°56.016 18.5026 0.120439 0.576255 -2.458615
2012-05-21 07:21:34 51°13.636 2°56.016 18.5121 0.120336 0.575752 -2.458615
2012-05-21 07:21:39 51°13.636 2°56.016 18.5119 0.120336 0.575752 -2.458615
2012-05-21 07:21:44 51°13.636 2°56.016 18.5137 0.120336 0.575752 -2.458615
2012-05-21 07:21:49 51°13.636 2°56.016 18.5163 0.120336 0.575752 -2.458615
2012-05-21 07:21:54 51°13.636 2°56.016 18.5126 0.120439 0.576272 -2.458615
2012-05-21 07:21:59 51°13.636 2°56.016 18.517 0.120439 0.576272 -2.458615
2012-05-21 07:22:04 51°13.636 2°56.016 18.5175 0.120336 0.575769 -2.458615
2012-05-21 07:22:09 51°13.636 2°56.016 18.521 0.120336 0.575769 -2.458615
2012-05-21 07:22:14 51°13.636 2°56.016 18.5246 0.120336 0.575769 -2.458615
2012-05-21 07:22:19 51°13.636 2°56.016 18.5214 0.120336 0.575777 -2.458615
2012-05-21 07:22:24 51°13.637 2°56.016 18.5168 0.120336 0.575777 -2.458615
2012-05-21 07:22:29 51°13.637 2°56.015 18.522 0.120336 0.575786 -2.458615
2012-05-21 07:22:34 51°13.637 2°56.015 18.5209 0.120336 0.575777 -2.458615
2012-05-21 07:22:39 51°13.637 2°56.015 18.5213 0.120336 0.575777 -2.458615
2012-05-21 07:22:44 51°13.637 2°56.015 18.5191 0.120336 0.575786 -2.458615
2012-05-21 07:22:49 51°13.637 2°56.015 18.5143 0.120336 0.575794 -2.458615
2012-05-21 07:22:54 51°13.637 2°56.015 18.5121 0.120336 0.575794 -2.458615
2012-05-21 07:22:58 51°13.637 2°56.015 18.5125 0.120336 0.575794 -2.458615
2012-05-21 07:23:04 51°13.637 2°56.015 18.5121 0.120336 0.575802 -2.458615
2012-05-21 07:23:09 51°13.637 2°56.015 18.5109 0.120336 0.575802 -2.458615
2012-05-21 07:23:14 51°13.637 2°56.015 18.5089 0.120439 0.576314 -2.458615
2012-05-21 07:23:19 51°13.637 2°56.015 18.5071 0.120336 0.575819 -2.458615
2012-05-21 07:23:24 51°13.637 2°56.015 18.5087 0.120336 0.575819 -2.458615
2012-05-21 07:23:29 51°13.637 2°56.015 18.5178 0.120439 0.576331 -2.458615
2012-05-21 07:23:34 51°13.637 2°56.015 18.5185 0.120439 0.576331 -2.458615
2012-05-21 07:23:39 51°13.637 2°56.015 18.5218 0.120439 0.576331 -2.458615
2012-05-21 07:23:44 51°13.637 2°56.015 18.5243 0.120336 0.575828 -2.458615
2012-05-21 07:23:49 51°13.637 2°56.016 18.5229 0.120336 0.575828 -2.458615
2012-05-21 07:23:54 51°13.637 2°56.016 18.5218 0.120336 0.575828 -2.458615
2012-05-21 07:23:59 51°13.637 2°56.015 18.5156 0.120439 0.576348 -2.458615
2012-05-21 07:24:04 51°13.637 2°56.015 18.513 0.120336 0.575844 -2.458615
2012-05-21 07:24:09 51°13.637 2°56.015 18.5175 0.120336 0.575844 -2.458615
2012-05-21 07:24:14 51°13.637 2°56.015 18.518 0.120336 0.575844 -2.458615
2012-05-21 07:24:19 51°13.637 2°56.015 18.5171 0.120336 0.575844 -2.458615
2012-05-21 07:24:24 51°13.638 2°56.015 18.5202 0.120336 0.575853 -2.458615
2012-05-21 07:24:29 51°13.638 2°56.015 18.5152 0.120336 0.575853 -2.458615
2012-05-21 07:24:34 51°13.638 2°56.015 18.5211 0.120336 0.575861 -2.458615
2012-05-21 07:24:39 51°13.638 2°56.015 18.5217 0.120336 0.575861 -2.458615
2012-05-21 07:24:44 51°13.638 2°56.015 18.5248 0.120336 0.575861 -2.458615
2012-05-21 07:24:49 51°13.638 2°56.014 18.525 0.120336 0.57587 -2.458615
2012-05-21 07:24:54 51°13.638 2°56.014 18.5165 0.120336 0.57587 -2.458615
2012-05-21 07:24:59 51°13.638 2°56.014 18.5158 0.120336 0.575878 -2.458615
2012-05-21 07:25:03 51°13.638 2°56.014 18.5147 0.120336 0.575878 -2.458615
2012-05-21 07:25:09 51°13.638 2°56.014 18.5167 0.120336 0.575878 -2.458615
2012-05-21 07:25:14 51°13.638 2°56.014 18.5158 0.120336 0.575878 -2.458615
2012-05-21 07:25:19 51°13.638 2°56.014 18.5172 0.120336 0.575886 -2.458615
2012-05-21 07:25:23 51°13.638 2°56.014 18.5145 0.120336 0.575895 -2.458615
2012-05-21 07:25:29 51°13.638 2°56.014 18.5046 0.120336 0.575895 -2.458615
2012-05-21 07:25:34 51°13.638 2°56.014 18.5169 0.120336 0.575903 -2.458615
2012-05-21 07:25:39 51°13.638 2°56.014 18.5104 0.120336 0.575903 -2.458615
2012-05-21 07:25:44 51°13.638 2°56.014 18.5106 0.120336 0.575903 -2.458615
2012-05-21 07:25:49 51°13.638 2°56.014 18.5174 0.120336 0.575903 -2.458615
2012-05-21 07:25:54 51°13.638 2°56.014 18.5156 0.120336 0.575903 -2.458615
2012-05-21 07:25:59 51°13.638 2°56.014 18.5136 0.120336 0.575912 -2.458615
2012-05-21 07:26:04 51°13.638 2°56.014 18.5125 0.120336 0.57592 -2.458615
2012-05-21 07:26:09 51°13.638 2°56.014 18.5138 0.120336 0.57592 -2.458615
2012-05-21 07:26:14 51°13.638 2°56.015 18.5104 0.120336 0.57592 -2.458615
2012-05-21 07:26:19 51°13.638 2°56.015 18.5129 0.120336 0.575928 -2.458615
2012-05-21 07:26:24 51°13.638 2°56.015 18.5107 0.120336 0.575928 -2.458615
2012-05-21 07:26:29 51°13.638 2°56.015 18.5115 0.120336 0.575928 -2.458615
2012-05-21 07:26:34 51°13.638 2°56.015 18.5132 0.120336 0.575937 -2.458615
2012-05-21 07:26:39 51°13.638 2°56.015 18.5146 0.120336 0.575937 -2.458615
2012-05-21 07:26:44 51°13.638 2°56.015 18.5157 0.120336 0.575945 -2.458615
2012-05-21 07:26:49 51°13.638 2°56.015 18.5185 0.120336 0.575945 -2.458615
2012-05-21 07:26:53 51°13.638 2°56.015 18.5161 0.120336 0.575945 -2.458615
2012-05-21 07:26:59 51°13.638 2°56.015 18.5159 0.120439 0.576465 -2.458615
2012-05-21 07:27:04 51°13.638 2°56.015 18.5159 0.120336 0.575962 -2.458615
2012-05-21 07:27:09 51°13.638 2°56.016 18.5238 0.120336 0.575962 -2.458615
2012-05-21 07:27:14 51°13.638 2°56.016 18.5218 0.120336 0.575962 -2.458615
2012-05-21 07:27:19 51°13.638 2°56.016 18.5249 0.120336 0.57597 -2.458615
2012-05-21 07:27:24 51°13.638 2°56.016 18.5244 0.120233 0.57545 -2.458615
2012-05-21 07:27:29 51°13.638 2°56.016 18.5283 0.120336 0.57597 -2.458615
2012-05-21 07:27:34 51°13.638 2°56.016 18.5269 0.120336 0.575979 -2.458615
2012-05-21 07:27:39 51°13.638 2°56.016 18.5247 0.120336 0.575979 -2.458615
2012-05-21 07:27:44 51°13.638 2°56.016 18.5189 0.120336 0.575979 -2.458615
2012-05-21 07:27:49 51°13.638 2°56.015 18.5223 0.120336 0.575987 -2.458615
2012-05-21 07:27:54 51°13.639 2°56.015 18.5264 0.120336 0.575987 -2.458615
2012-05-21 07:27:59 51°13.639 2°56.015 18.52 0.120336 0.575996 -2.458615
2012-05-21 07:28:03 51°13.639 2°56.015 18.5216 0.120336 0.575996 -2.458615
2012-05-21 07:28:09 51°13.638 2°56.016 18.5227 0.120336 0.575996 -2.458615
2012-05-21 07:28:14 51°13.638 2°56.016 18.5241 0.120233 0.575492 -2.458615
2012-05-21 07:28:19 51°13.638 2°56.016 18.525 0.120336 0.576004 -2.458615
2012-05-21 07:28:24 51°13.639 2°56.015 18.5247 0.120336 0.576004 -2.458615
2012-05-21 07:28:29 51°13.639 2°56.015 18.5224 0.120336 0.576012 -2.458615
2012-05-21 07:28:34 51°13.639 2°56.015 18.5165 0.120336 0.576012 -2.458615
2012-05-21 07:28:39 51°13.639 2°56.015 18.5211 0.120336 0.576021 -2.458615
2012-05-21 07:28:44 51°13.639 2°56.015 18.5244 0.120336 0.576021 -2.458615
2012-05-21 07:28:49 51°13.639 2°56.015 18.5323 0.120233 0.575517 -2.458615
2012-05-21 07:28:54 51°13.639 2°56.015 18.5307 0.120336 0.576029 -2.458615
2012-05-21 07:28:58 51°13.639 2°56.015 18.5194 0.120336 0.576029 -2.458615
2012-05-21 07:29:03 51°13.639 2°56.015 18.5255 0.120336 0.576038 -2.458615
2012-05-21 07:29:08 51°13.639 2°56.015 18.5181 0.120336 0.576038 -2.458615
2012-05-21 07:29:13 51°13.639 2°56.015 18.5239 0.120336 0.576038 -2.458615
2012-05-21 07:29:18 51°13.64 2°56.015 18.5287 0.120336 0.576038 -2.458615
2012-05-21 07:29:23 51°13.639 2°56.015 18.5309 0.120336 0.576038 -2.458615
2012-05-21 07:29:29 51°13.639 2°56.015 18.5347 0.120336 0.576054 -2.458615
2012-05-21 07:29:34 51°13.639 2°56.015 18.5363 0.120336 0.576054 -2.458615
2012-05-21 07:29:39 51°13.639 2°56.015 18.5313 0.120336 0.576054 -2.458615
2012-05-21 07:29:44 51°13.639 2°56.015 18.5296 0.120336 0.576054 -2.458615
2012-05-21 07:29:49 51°13.639 2°56.016 18.5245 0.120336 0.576063 -2.458615
2012-05-21 07:29:54 51°13.639 2°56.016 18.5221 0.120233 0.575551 -2.458615
2012-05-21 07:29:59 51°13.639 2°56.016 18.5228 0.120336 0.576071 -2.458615
2012-05-21 07:30:04 51°13.639 2°56.016 18.5267 0.120233 0.575559 -2.458615
2012-05-21 07:30:08 51°13.638 2°56.016 18.5248 0.120233 0.575559 -2.458615
2012-05-21 07:30:14 51°13.638 2°56.016 18.5257 0.120336 0.576071 -2.458615
2012-05-21 07:30:19 51°13.638 2°56.016 18.5297 0.120336 0.57608 -2.458615
2012-05-21 07:30:24 51°13.638 2°56.016 18.5299 0.120336 0.576088 -2.458615
2012-05-21 07:30:28 51°13.638 2°56.016 18.53 0.120233 0.575576 -2.458615
2012-05-21 07:30:34 51°13.638 2°56.016 18.5291 0.120233 0.575576 -2.458615
2012-05-21 07:30:39 51°13.638 2°56.016 18.5247 0.120233 0.575576 -2.458615
2012-05-21 07:30:44 51°13.638 2°56.016 18.5202 0.120233 0.575576 -2.458615
2012-05-21 07:30:49 51°13.638 2°56.016 18.5222 0.120233 0.575584 -2.458615
2012-05-21 07:30:54 51°13.638 2°56.016 18.5279 0.120336 0.576096 -2.458615
2012-05-21 07:30:59 51°13.638 2°56.017 18.5294 0.120336 0.576105 -2.458615
2012-05-21 07:31:03 51°13.638 2°56.017 18.5206 0.120336 0.576113 -2.458615